<?xml version="1.0" encoding="UTF-8" standalone="no" ?>
<gpx xmlns="http://www.topografix.com/GPX/1/1" xmlns:xsi="http://www.w3.org/2001/XMLSchema-instance" xsi:schemaLocation="http://www.topografix.com/GPX/1/1 http://www.topografix.com/GPX/1/1/gpx.xsd" version="1.1" creator="VisuGPX - https://www.visugpx.com">
  <metadata>
    <name>TRACE VERS SINGLE MAICHE</name>
  </metadata>
  <trk>
    <name><![CDATA[Piste VTT Maîche single ludique descendant-25049930]]></name>
    <trkseg>
      <trkpt lat="47.21789" lon="6.79857">
        <ele>896</ele>
        <time>2026-08-28T05:12:12Z</time>
      </trkpt>
      <trkpt lat="47.21817" lon="6.79865">
        <ele>896</ele>
        <time>2026-08-28T05:12:19Z</time>
      </trkpt>
      <trkpt lat="47.21833" lon="6.79793">
        <ele>896</ele>
        <time>2026-08-28T05:12:31Z</time>
      </trkpt>
      <trkpt lat="47.21836" lon="6.79784">
        <ele>895</ele>
        <time>2026-08-28T05:12:32Z</time>
      </trkpt>
      <trkpt lat="47.21846" lon="6.79765">
        <ele>894</ele>
        <time>2026-08-28T05:12:36Z</time>
      </trkpt>
      <trkpt lat="47.21974" lon="6.79758">
        <ele>893</ele>
        <time>2026-08-28T05:13:06Z</time>
      </trkpt>
      <trkpt lat="47.21971" lon="6.79654">
        <ele>888</ele>
        <time>2026-08-28T05:13:23Z</time>
      </trkpt>
      <trkpt lat="47.21969" lon="6.79592">
        <ele>887</ele>
        <time>2026-08-28T05:13:32Z</time>
      </trkpt>
      <trkpt lat="47.21901" lon="6.79566">
        <ele>887</ele>
        <time>2026-08-28T05:13:49Z</time>
      </trkpt>
      <trkpt lat="47.21911" lon="6.79528">
        <ele>886</ele>
        <time>2026-08-28T05:13:55Z</time>
      </trkpt>
      <trkpt lat="47.21931" lon="6.79457">
        <ele>887</ele>
        <time>2026-08-28T05:14:07Z</time>
      </trkpt>
      <trkpt lat="47.21932" lon="6.79442">
        <ele>888</ele>
        <time>2026-08-28T05:14:10Z</time>
      </trkpt>
      <trkpt lat="47.2193" lon="6.79398">
        <ele>888</ele>
        <time>2026-08-28T05:14:17Z</time>
      </trkpt>
      <trkpt lat="47.21932" lon="6.79384">
        <ele>889</ele>
        <time>2026-08-28T05:14:19Z</time>
      </trkpt>
      <trkpt lat="47.21936" lon="6.7936">
        <ele>889</ele>
        <time>2026-08-28T05:14:23Z</time>
      </trkpt>
      <trkpt lat="47.21964" lon="6.79257">
        <ele>891</ele>
        <time>2026-08-28T05:14:41Z</time>
      </trkpt>
      <trkpt lat="47.21968" lon="6.79231">
        <ele>891</ele>
        <time>2026-08-28T05:14:45Z</time>
      </trkpt>
      <trkpt lat="47.21971" lon="6.79224">
        <ele>892</ele>
        <time>2026-08-28T05:14:46Z</time>
      </trkpt>
      <trkpt lat="47.21978" lon="6.79221">
        <ele>892</ele>
        <time>2026-08-28T05:14:48Z</time>
      </trkpt>
      <trkpt lat="47.22002" lon="6.79222">
        <ele>893</ele>
        <time>2026-08-28T05:14:53Z</time>
      </trkpt>
      <trkpt lat="47.22002" lon="6.79201">
        <ele>893</ele>
        <time>2026-08-28T05:14:57Z</time>
      </trkpt>
      <trkpt lat="47.22" lon="6.79153">
        <ele>893</ele>
        <time>2026-08-28T05:15:04Z</time>
      </trkpt>
      <trkpt lat="47.21998" lon="6.79068">
        <ele>894</ele>
        <time>2026-08-28T05:15:18Z</time>
      </trkpt>
      <trkpt lat="47.21997" lon="6.79056">
        <ele>894</ele>
        <time>2026-08-28T05:15:20Z</time>
      </trkpt>
      <trkpt lat="47.21994" lon="6.79038">
        <ele>895</ele>
        <time>2026-08-28T05:15:23Z</time>
      </trkpt>
      <trkpt lat="47.21971" lon="6.78852">
        <ele>893</ele>
        <time>2026-08-28T05:15:53Z</time>
      </trkpt>
      <trkpt lat="47.21963" lon="6.78819">
        <ele>892</ele>
        <time>2026-08-28T05:15:58Z</time>
      </trkpt>
      <trkpt lat="47.21866" lon="6.78573">
        <ele>886</ele>
        <time>2026-08-28T05:16:43Z</time>
      </trkpt>
      <trkpt lat="47.21847" lon="6.78502">
        <ele>883</ele>
        <time>2026-08-28T05:16:56Z</time>
      </trkpt>
      <trkpt lat="47.21826" lon="6.78408">
        <ele>881</ele>
        <time>2026-08-28T05:17:11Z</time>
      </trkpt>
      <trkpt lat="47.21813" lon="6.7839">
        <ele>880</ele>
        <time>2026-08-28T05:17:15Z</time>
      </trkpt>
      <trkpt lat="47.21788" lon="6.78375">
        <ele>879</ele>
        <time>2026-08-28T05:17:22Z</time>
      </trkpt>
      <trkpt lat="47.21769" lon="6.78368">
        <ele>878</ele>
        <time>2026-08-28T05:17:26Z</time>
      </trkpt>
      <trkpt lat="47.21749" lon="6.78369">
        <ele>877</ele>
        <time>2026-08-28T05:17:31Z</time>
      </trkpt>
      <trkpt lat="47.21719" lon="6.78359">
        <ele>875</ele>
        <time>2026-08-28T05:17:38Z</time>
      </trkpt>
      <trkpt lat="47.21661" lon="6.78278">
        <ele>872</ele>
        <time>2026-08-28T05:17:57Z</time>
      </trkpt>
      <trkpt lat="47.2164" lon="6.78252">
        <ele>872</ele>
        <time>2026-08-28T05:18:03Z</time>
      </trkpt>
      <trkpt lat="47.21638" lon="6.78249">
        <ele>872</ele>
        <time>2026-08-28T05:18:04Z</time>
      </trkpt>
      <trkpt lat="47.21664" lon="6.78098">
        <ele>871</ele>
        <time>2026-08-28T05:18:29Z</time>
      </trkpt>
      <trkpt lat="47.2169" lon="6.77944">
        <ele>871</ele>
        <time>2026-08-28T05:18:54Z</time>
      </trkpt>
      <trkpt lat="47.21702" lon="6.77821">
        <ele>867</ele>
        <time>2026-08-28T05:19:13Z</time>
      </trkpt>
      <trkpt lat="47.21706" lon="6.77747">
        <ele>866</ele>
        <time>2026-08-28T05:19:25Z</time>
      </trkpt>
      <trkpt lat="47.21709" lon="6.77701">
        <ele>865</ele>
        <time>2026-08-28T05:19:33Z</time>
      </trkpt>
      <trkpt lat="47.21715" lon="6.77649">
        <ele>864</ele>
        <time>2026-08-28T05:19:41Z</time>
      </trkpt>
      <trkpt lat="47.21726" lon="6.77588">
        <ele>864</ele>
        <time>2026-08-28T05:19:51Z</time>
      </trkpt>
      <trkpt lat="47.21791" lon="6.77321">
        <ele>853</ele>
        <time>2026-08-28T05:20:36Z</time>
      </trkpt>
      <trkpt lat="47.21816" lon="6.77216">
        <ele>854</ele>
        <time>2026-08-28T05:20:54Z</time>
      </trkpt>
      <trkpt lat="47.21817" lon="6.7721">
        <ele>854</ele>
        <time>2026-08-28T05:20:55Z</time>
      </trkpt>
      <trkpt lat="47.21835" lon="6.77142">
        <ele>854</ele>
        <time>2026-08-28T05:21:06Z</time>
      </trkpt>
      <trkpt lat="47.21845" lon="6.77108">
        <ele>855</ele>
        <time>2026-08-28T05:21:12Z</time>
      </trkpt>
      <trkpt lat="47.21852" lon="6.7711">
        <ele>855</ele>
        <time>2026-08-28T05:21:14Z</time>
      </trkpt>
      <trkpt lat="47.21861" lon="6.77113">
        <ele>855</ele>
        <time>2026-08-28T05:21:16Z</time>
      </trkpt>
      <trkpt lat="47.21889" lon="6.77119">
        <ele>855</ele>
        <time>2026-08-28T05:21:22Z</time>
      </trkpt>
      <trkpt lat="47.21898" lon="6.77117">
        <ele>855</ele>
        <time>2026-08-28T05:21:25Z</time>
      </trkpt>
      <trkpt lat="47.21922" lon="6.77107">
        <ele>856</ele>
        <time>2026-08-28T05:21:30Z</time>
      </trkpt>
      <trkpt lat="47.21939" lon="6.77075">
        <ele>856</ele>
        <time>2026-08-28T05:21:37Z</time>
      </trkpt>
      <trkpt lat="47.21967" lon="6.77017">
        <ele>857</ele>
        <time>2026-08-28T05:21:48Z</time>
      </trkpt>
      <trkpt lat="47.21976" lon="6.77004">
        <ele>857</ele>
        <time>2026-08-28T05:21:51Z</time>
      </trkpt>
      <trkpt lat="47.21993" lon="6.76993">
        <ele>857</ele>
        <time>2026-08-28T05:21:55Z</time>
      </trkpt>
      <trkpt lat="47.22008" lon="6.76987">
        <ele>857</ele>
        <time>2026-08-28T05:21:59Z</time>
      </trkpt>
      <trkpt lat="47.22059" lon="6.76975">
        <ele>857</ele>
        <time>2026-08-28T05:22:11Z</time>
      </trkpt>
      <trkpt lat="47.22153" lon="6.76947">
        <ele>860</ele>
        <time>2026-08-28T05:22:33Z</time>
      </trkpt>
      <trkpt lat="47.22176" lon="6.76939">
        <ele>861</ele>
        <time>2026-08-28T05:22:39Z</time>
      </trkpt>
      <trkpt lat="47.22193" lon="6.76922">
        <ele>862</ele>
        <time>2026-08-28T05:22:44Z</time>
      </trkpt>
      <trkpt lat="47.22206" lon="6.76899">
        <ele>864</ele>
        <time>2026-08-28T05:22:49Z</time>
      </trkpt>
      <trkpt lat="47.22221" lon="6.76864">
        <ele>866</ele>
        <time>2026-08-28T05:22:55Z</time>
      </trkpt>
      <trkpt lat="47.22222" lon="6.76859">
        <ele>867</ele>
        <time>2026-08-28T05:22:56Z</time>
      </trkpt>
      <trkpt lat="47.22294" lon="6.76914">
        <ele>872</ele>
        <time>2026-08-28T05:23:15Z</time>
      </trkpt>
      <trkpt lat="47.22307" lon="6.76927">
        <ele>873</ele>
        <time>2026-08-28T05:23:19Z</time>
      </trkpt>
      <trkpt lat="47.22316" lon="6.76939">
        <ele>874</ele>
        <time>2026-08-28T05:23:21Z</time>
      </trkpt>
      <trkpt lat="47.22347" lon="6.7697">
        <ele>875</ele>
        <time>2026-08-28T05:23:30Z</time>
      </trkpt>
      <trkpt lat="47.22362" lon="6.76993">
        <ele>874</ele>
        <time>2026-08-28T05:23:35Z</time>
      </trkpt>
      <trkpt lat="47.22385" lon="6.77015">
        <ele>874</ele>
        <time>2026-08-28T05:23:42Z</time>
      </trkpt>
      <trkpt lat="47.22406" lon="6.77012">
        <ele>876</ele>
        <time>2026-08-28T05:23:47Z</time>
      </trkpt>
      <trkpt lat="47.22434" lon="6.76988">
        <ele>878</ele>
        <time>2026-08-28T05:23:54Z</time>
      </trkpt>
      <trkpt lat="47.22476" lon="6.76969">
        <ele>877</ele>
        <time>2026-08-28T05:24:04Z</time>
      </trkpt>
      <trkpt lat="47.22512" lon="6.76926">
        <ele>877</ele>
        <time>2026-08-28T05:24:15Z</time>
      </trkpt>
      <trkpt lat="47.22546" lon="6.7692">
        <ele>874</ele>
        <time>2026-08-28T05:24:23Z</time>
      </trkpt>
      <trkpt lat="47.22556" lon="6.76938">
        <ele>872</ele>
        <time>2026-08-28T05:24:27Z</time>
      </trkpt>
      <trkpt lat="47.22576" lon="6.76829">
        <ele>876</ele>
        <time>2026-08-28T05:24:45Z</time>
      </trkpt>
      <trkpt lat="47.22592" lon="6.76793">
        <ele>876</ele>
        <time>2026-08-28T05:24:52Z</time>
      </trkpt>
      <trkpt lat="47.22597" lon="6.76707">
        <ele>874</ele>
        <time>2026-08-28T05:25:05Z</time>
      </trkpt>
      <trkpt lat="47.22613" lon="6.76636">
        <ele>869</ele>
        <time>2026-08-28T05:25:17Z</time>
      </trkpt>
      <trkpt lat="47.22636" lon="6.76547">
        <ele>865</ele>
        <time>2026-08-28T05:25:32Z</time>
      </trkpt>
      <trkpt lat="47.22637" lon="6.76543">
        <ele>865</ele>
        <time>2026-08-28T05:25:33Z</time>
      </trkpt>
      <trkpt lat="47.22651" lon="6.76532">
        <ele>865</ele>
        <time>2026-08-28T05:25:37Z</time>
      </trkpt>
      <trkpt lat="47.22662" lon="6.76527">
        <ele>864</ele>
        <time>2026-08-28T05:25:39Z</time>
      </trkpt>
      <trkpt lat="47.22716" lon="6.76515">
        <ele>863</ele>
        <time>2026-08-28T05:25:52Z</time>
      </trkpt>
      <trkpt lat="47.22746" lon="6.76502">
        <ele>862</ele>
        <time>2026-08-28T05:25:59Z</time>
      </trkpt>
      <trkpt lat="47.22762" lon="6.7649">
        <ele>864</ele>
        <time>2026-08-28T05:26:04Z</time>
      </trkpt>
      <trkpt lat="47.22781" lon="6.76467">
        <ele>868</ele>
        <time>2026-08-28T05:26:09Z</time>
      </trkpt>
      <trkpt lat="47.22807" lon="6.76423">
        <ele>875</ele>
        <time>2026-08-28T05:26:19Z</time>
      </trkpt>
      <trkpt lat="47.22814" lon="6.76416">
        <ele>877</ele>
        <time>2026-08-28T05:26:21Z</time>
      </trkpt>
      <trkpt lat="47.22822" lon="6.76417">
        <ele>878</ele>
        <time>2026-08-28T05:26:22Z</time>
      </trkpt>
      <trkpt lat="47.22831" lon="6.76423">
        <ele>879</ele>
        <time>2026-08-28T05:26:25Z</time>
      </trkpt>
      <trkpt lat="47.22857" lon="6.76467">
        <ele>881</ele>
        <time>2026-08-28T05:26:34Z</time>
      </trkpt>
      <trkpt lat="47.22876" lon="6.76493">
        <ele>884</ele>
        <time>2026-08-28T05:26:40Z</time>
      </trkpt>
      <trkpt lat="47.22885" lon="6.76514">
        <ele>884</ele>
        <time>2026-08-28T05:26:44Z</time>
      </trkpt>
      <trkpt lat="47.22891" lon="6.76532">
        <ele>885</ele>
        <time>2026-08-28T05:26:47Z</time>
      </trkpt>
      <trkpt lat="47.22897" lon="6.76538">
        <ele>886</ele>
        <time>2026-08-28T05:26:49Z</time>
      </trkpt>
      <trkpt lat="47.229" lon="6.76538">
        <ele>886</ele>
        <time>2026-08-28T05:26:50Z</time>
      </trkpt>
      <trkpt lat="47.22904" lon="6.76535">
        <ele>887</ele>
        <time>2026-08-28T05:26:51Z</time>
      </trkpt>
      <trkpt lat="47.22905" lon="6.76529">
        <ele>888</ele>
        <time>2026-08-28T05:26:52Z</time>
      </trkpt>
      <trkpt lat="47.22905" lon="6.76448">
        <ele>893</ele>
        <time>2026-08-28T05:27:04Z</time>
      </trkpt>
      <trkpt lat="47.22908" lon="6.76391">
        <ele>897</ele>
        <time>2026-08-28T05:27:13Z</time>
      </trkpt>
      <trkpt lat="47.22904" lon="6.76356">
        <ele>898</ele>
        <time>2026-08-28T05:27:19Z</time>
      </trkpt>
      <trkpt lat="47.22904" lon="6.76334">
        <ele>898</ele>
        <time>2026-08-28T05:27:23Z</time>
      </trkpt>
      <trkpt lat="47.22905" lon="6.76303">
        <ele>901</ele>
        <time>2026-08-28T05:27:28Z</time>
      </trkpt>
      <trkpt lat="47.22908" lon="6.7628">
        <ele>903</ele>
        <time>2026-08-28T05:27:31Z</time>
      </trkpt>
      <trkpt lat="47.22914" lon="6.76249">
        <ele>906</ele>
        <time>2026-08-28T05:27:36Z</time>
      </trkpt>
      <trkpt lat="47.22917" lon="6.76223">
        <ele>909</ele>
        <time>2026-08-28T05:27:41Z</time>
      </trkpt>
      <trkpt lat="47.22916" lon="6.76127">
        <ele>917</ele>
        <time>2026-08-28T05:27:56Z</time>
      </trkpt>
      <trkpt lat="47.22913" lon="6.7609">
        <ele>919</ele>
        <time>2026-08-28T05:28:02Z</time>
      </trkpt>
      <trkpt lat="47.22916" lon="6.76077">
        <ele>922</ele>
        <time>2026-08-28T05:28:04Z</time>
      </trkpt>
      <trkpt lat="47.22922" lon="6.76069">
        <ele>923</ele>
        <time>2026-08-28T05:28:06Z</time>
      </trkpt>
      <trkpt lat="47.22928" lon="6.76067">
        <ele>924</ele>
        <time>2026-08-28T05:28:07Z</time>
      </trkpt>
      <trkpt lat="47.22937" lon="6.76069">
        <ele>925</ele>
        <time>2026-08-28T05:28:09Z</time>
      </trkpt>
      <trkpt lat="47.22948" lon="6.76081">
        <ele>926</ele>
        <time>2026-08-28T05:28:12Z</time>
      </trkpt>
      <trkpt lat="47.22985" lon="6.76133">
        <ele>932</ele>
        <time>2026-08-28T05:28:24Z</time>
      </trkpt>
      <trkpt lat="47.22996" lon="6.76146">
        <ele>934</ele>
        <time>2026-08-28T05:28:28Z</time>
      </trkpt>
      <trkpt lat="47.23002" lon="6.76149">
        <ele>935</ele>
        <time>2026-08-28T05:28:29Z</time>
      </trkpt>
      <trkpt lat="47.2303" lon="6.76247">
        <ele>935</ele>
        <time>2026-08-28T05:28:46Z</time>
      </trkpt>
      <trkpt lat="47.2305" lon="6.7629">
        <ele>936</ele>
        <time>2026-08-28T05:28:54Z</time>
      </trkpt>
      <trkpt lat="47.23115" lon="6.76527">
        <ele>935</ele>
        <time>2026-08-28T05:29:35Z</time>
      </trkpt>
      <trkpt lat="47.23116" lon="6.76532">
        <ele>934</ele>
        <time>2026-08-28T05:29:36Z</time>
      </trkpt>
      <trkpt lat="47.23109" lon="6.76561">
        <ele>934</ele>
        <time>2026-08-28T05:29:41Z</time>
      </trkpt>
      <trkpt lat="47.23109" lon="6.7657">
        <ele>934</ele>
        <time>2026-08-28T05:29:42Z</time>
      </trkpt>
      <trkpt lat="47.23124" lon="6.76627">
        <ele>931</ele>
        <time>2026-08-28T05:29:52Z</time>
      </trkpt>
      <trkpt lat="47.23143" lon="6.76753">
        <ele>927</ele>
        <time>2026-08-28T05:30:12Z</time>
      </trkpt>
      <trkpt lat="47.23163" lon="6.76786">
        <ele>927</ele>
        <time>2026-08-28T05:30:19Z</time>
      </trkpt>
      <trkpt lat="47.23173" lon="6.76832">
        <ele>922</ele>
        <time>2026-08-28T05:30:27Z</time>
      </trkpt>
      <trkpt lat="47.23224" lon="6.77014">
        <ele>904</ele>
        <time>2026-08-28T05:30:58Z</time>
      </trkpt>
      <trkpt lat="47.23232" lon="6.77026">
        <ele>904</ele>
        <time>2026-08-28T05:31:01Z</time>
      </trkpt>
      <trkpt lat="47.23233" lon="6.77047">
        <ele>904</ele>
        <time>2026-08-28T05:31:04Z</time>
      </trkpt>
      <trkpt lat="47.23249" lon="6.77084">
        <ele>904</ele>
        <time>2026-08-28T05:31:11Z</time>
      </trkpt>
      <trkpt lat="47.23345" lon="6.77366">
        <ele>881</ele>
        <time>2026-08-28T05:32:01Z</time>
      </trkpt>
      <trkpt lat="47.23347" lon="6.7737">
        <ele>880</ele>
        <time>2026-08-28T05:32:02Z</time>
      </trkpt>
      <trkpt lat="47.23408" lon="6.77501">
        <ele>871</ele>
        <time>2026-08-28T05:32:27Z</time>
      </trkpt>
      <trkpt lat="47.23435" lon="6.77558">
        <ele>862</ele>
        <time>2026-08-28T05:32:38Z</time>
      </trkpt>
      <trkpt lat="47.23472" lon="6.77632">
        <ele>854</ele>
        <time>2026-08-28T05:32:53Z</time>
      </trkpt>
      <trkpt lat="47.23489" lon="6.77712">
        <ele>854</ele>
        <time>2026-08-28T05:33:06Z</time>
      </trkpt>
      <trkpt lat="47.23497" lon="6.77773">
        <ele>854</ele>
        <time>2026-08-28T05:33:16Z</time>
      </trkpt>
      <trkpt lat="47.23537" lon="6.77857">
        <ele>847</ele>
        <time>2026-08-28T05:33:32Z</time>
      </trkpt>
      <trkpt lat="47.23565" lon="6.77946">
        <ele>840</ele>
        <time>2026-08-28T05:33:48Z</time>
      </trkpt>
      <trkpt lat="47.23652" lon="6.7802">
        <ele>839</ele>
        <time>2026-08-28T05:34:11Z</time>
      </trkpt>
      <trkpt lat="47.23721" lon="6.78131">
        <ele>844</ele>
        <time>2026-08-28T05:34:35Z</time>
      </trkpt>
      <trkpt lat="47.23815" lon="6.78188">
        <ele>848</ele>
        <time>2026-08-28T05:34:59Z</time>
      </trkpt>
      <trkpt lat="47.23865" lon="6.78281">
        <ele>840</ele>
        <time>2026-08-28T05:35:17Z</time>
      </trkpt>
      <trkpt lat="47.23935" lon="6.78331">
        <ele>840</ele>
        <time>2026-08-28T05:35:36Z</time>
      </trkpt>
      <trkpt lat="47.24009" lon="6.78403">
        <ele>834</ele>
        <time>2026-08-28T05:35:56Z</time>
      </trkpt>
      <trkpt lat="47.24177" lon="6.78545">
        <ele>822</ele>
        <time>2026-08-28T05:36:42Z</time>
      </trkpt>
      <trkpt lat="47.24277" lon="6.78584">
        <ele>825</ele>
        <time>2026-08-28T05:37:06Z</time>
      </trkpt>
      <trkpt lat="47.24337" lon="6.78652">
        <ele>830</ele>
        <time>2026-08-28T05:37:23Z</time>
      </trkpt>
      <trkpt lat="47.24399" lon="6.78729">
        <ele>827</ele>
        <time>2026-08-28T05:37:42Z</time>
      </trkpt>
      <trkpt lat="47.24423" lon="6.78755">
        <ele>828</ele>
        <time>2026-08-28T05:37:49Z</time>
      </trkpt>
      <trkpt lat="47.24496" lon="6.78765">
        <ele>827</ele>
        <time>2026-08-28T05:38:06Z</time>
      </trkpt>
      <trkpt lat="47.24599" lon="6.78797">
        <ele>824</ele>
        <time>2026-08-28T05:38:31Z</time>
      </trkpt>
      <trkpt lat="47.24718" lon="6.78863">
        <ele>818</ele>
        <time>2026-08-28T05:39:01Z</time>
      </trkpt>
      <trkpt lat="47.24798" lon="6.78918">
        <ele>814</ele>
        <time>2026-08-28T05:39:21Z</time>
      </trkpt>
      <trkpt lat="47.24811" lon="6.78948">
        <ele>812</ele>
        <time>2026-08-28T05:39:27Z</time>
      </trkpt>
      <trkpt lat="47.24785" lon="6.78995">
        <ele>821</ele>
        <time>2026-08-28T05:39:37Z</time>
      </trkpt>
      <trkpt lat="47.24783" lon="6.79053">
        <ele>823</ele>
        <time>2026-08-28T05:39:46Z</time>
      </trkpt>
      <trkpt lat="47.248" lon="6.7916">
        <ele>818</ele>
        <time>2026-08-28T05:40:03Z</time>
      </trkpt>
      <trkpt lat="47.2483" lon="6.793">
        <ele>817</ele>
        <time>2026-08-28T05:40:26Z</time>
      </trkpt>
      <trkpt lat="47.24854" lon="6.79421">
        <ele>822</ele>
        <time>2026-08-28T05:40:46Z</time>
      </trkpt>
      <trkpt lat="47.24867" lon="6.79509">
        <ele>824</ele>
        <time>2026-08-28T05:41:01Z</time>
      </trkpt>
      <trkpt lat="47.24883" lon="6.79567">
        <ele>820</ele>
        <time>2026-08-28T05:41:11Z</time>
      </trkpt>
      <trkpt lat="47.24883" lon="6.79618">
        <ele>821</ele>
        <time>2026-08-28T05:41:19Z</time>
      </trkpt>
      <trkpt lat="47.2487" lon="6.79647">
        <ele>825</ele>
        <time>2026-08-28T05:41:24Z</time>
      </trkpt>
      <trkpt lat="47.24903" lon="6.798">
        <ele>811</ele>
        <time>2026-08-28T05:41:50Z</time>
      </trkpt>
      <trkpt lat="47.24897" lon="6.79889">
        <ele>812</ele>
        <time>2026-08-28T05:42:04Z</time>
      </trkpt>
      <trkpt lat="47.24893" lon="6.80061">
        <ele>815</ele>
        <time>2026-08-28T05:42:31Z</time>
      </trkpt>
      <trkpt lat="47.24889" lon="6.80197">
        <ele>819</ele>
        <time>2026-08-28T05:42:53Z</time>
      </trkpt>
      <trkpt lat="47.24887" lon="6.80262">
        <ele>820</ele>
        <time>2026-08-28T05:43:03Z</time>
      </trkpt>
      <trkpt lat="47.24904" lon="6.80356">
        <ele>819</ele>
        <time>2026-08-28T05:43:18Z</time>
      </trkpt>
      <trkpt lat="47.24914" lon="6.8042">
        <ele>824</ele>
        <time>2026-08-28T05:43:29Z</time>
      </trkpt>
      <trkpt lat="47.24915" lon="6.80553">
        <ele>834</ele>
        <time>2026-08-28T05:43:50Z</time>
      </trkpt>
      <trkpt lat="47.24913" lon="6.80691">
        <ele>833</ele>
        <time>2026-08-28T05:44:12Z</time>
      </trkpt>
      <trkpt lat="47.24895" lon="6.80822">
        <ele>823</ele>
        <time>2026-08-28T05:44:33Z</time>
      </trkpt>
      <trkpt lat="47.24892" lon="6.80854">
        <ele>819</ele>
        <time>2026-08-28T05:44:38Z</time>
      </trkpt>
      <trkpt lat="47.24901" lon="6.80877">
        <ele>816</ele>
        <time>2026-08-28T05:44:42Z</time>
      </trkpt>
      <trkpt lat="47.2486" lon="6.80897">
        <ele>815</ele>
        <time>2026-08-28T05:44:52Z</time>
      </trkpt>
      <trkpt lat="47.24855" lon="6.80916">
        <ele>813</ele>
        <time>2026-08-28T05:44:56Z</time>
      </trkpt>
      <trkpt lat="47.24877" lon="6.80919">
        <ele>813</ele>
        <time>2026-08-28T05:45:01Z</time>
      </trkpt>
      <trkpt lat="47.24909" lon="6.80915">
        <ele>811</ele>
        <time>2026-08-28T05:45:08Z</time>
      </trkpt>
      <trkpt lat="47.2493" lon="6.8092">
        <ele>810</ele>
        <time>2026-08-28T05:45:13Z</time>
      </trkpt>
      <trkpt lat="47.24952" lon="6.80929">
        <ele>808</ele>
        <time>2026-08-28T05:45:19Z</time>
      </trkpt>
      <trkpt lat="47.24989" lon="6.80935">
        <ele>806</ele>
        <time>2026-08-28T05:45:27Z</time>
      </trkpt>
      <trkpt lat="47.25043" lon="6.80905">
        <ele>803</ele>
        <time>2026-08-28T05:45:41Z</time>
      </trkpt>
      <trkpt lat="47.25105" lon="6.80959">
        <ele>811</ele>
        <time>2026-08-28T05:45:58Z</time>
      </trkpt>
      <trkpt lat="47.25185" lon="6.80932">
        <ele>810</ele>
        <time>2026-08-28T05:46:17Z</time>
      </trkpt>
      <trkpt lat="47.25241" lon="6.80923">
        <ele>812</ele>
        <time>2026-08-28T05:46:30Z</time>
      </trkpt>
      <trkpt lat="47.25255" lon="6.80911">
        <ele>810</ele>
        <time>2026-08-28T05:46:34Z</time>
      </trkpt>
      <trkpt lat="47.25294" lon="6.80921">
        <ele>814</ele>
        <time>2026-08-28T05:46:43Z</time>
      </trkpt>
      <trkpt lat="47.25363" lon="6.80933">
        <ele>821</ele>
        <time>2026-08-28T05:46:59Z</time>
      </trkpt>
      <trkpt lat="47.25418" lon="6.80941">
        <ele>826</ele>
        <time>2026-08-28T05:47:12Z</time>
      </trkpt>
      <trkpt lat="47.25455" lon="6.80923">
        <ele>823</ele>
        <time>2026-08-28T05:47:21Z</time>
      </trkpt>
      <trkpt lat="47.25526" lon="6.80917">
        <ele>832</ele>
        <time>2026-08-28T05:47:38Z</time>
      </trkpt>
      <trkpt lat="47.2554" lon="6.80899">
        <ele>833</ele>
        <time>2026-08-28T05:47:42Z</time>
      </trkpt>
      <trkpt lat="47.25554" lon="6.80858">
        <ele>834</ele>
        <time>2026-08-28T05:47:49Z</time>
      </trkpt>
      <trkpt lat="47.25564" lon="6.80805">
        <ele>838</ele>
        <time>2026-08-28T05:47:58Z</time>
      </trkpt>
      <trkpt lat="47.25599" lon="6.80776">
        <ele>853</ele>
        <time>2026-08-28T05:48:08Z</time>
      </trkpt>
      <trkpt lat="47.25645" lon="6.8079">
        <ele>868</ele>
        <time>2026-08-28T05:48:18Z</time>
      </trkpt>
      <trkpt lat="47.25718" lon="6.80836">
        <ele>877</ele>
        <time>2026-08-28T05:48:37Z</time>
      </trkpt>
      <trkpt lat="47.25769" lon="6.80857">
        <ele>882</ele>
        <time>2026-08-28T05:48:49Z</time>
      </trkpt>
      <trkpt lat="47.25826" lon="6.80881">
        <ele>888</ele>
        <time>2026-08-28T05:49:03Z</time>
      </trkpt>
      <trkpt lat="47.25872" lon="6.80904">
        <ele>889</ele>
        <time>2026-08-28T05:49:15Z</time>
      </trkpt>
      <trkpt lat="47.25908" lon="6.80894">
        <ele>892</ele>
        <time>2026-08-28T05:49:23Z</time>
      </trkpt>
      <trkpt lat="47.25942" lon="6.8088">
        <ele>892</ele>
        <time>2026-08-28T05:49:31Z</time>
      </trkpt>
      <trkpt lat="47.25948" lon="6.80907">
        <ele>889</ele>
        <time>2026-08-28T05:49:36Z</time>
      </trkpt>
      <trkpt lat="47.25952" lon="6.80952">
        <ele>889</ele>
        <time>2026-08-28T05:49:43Z</time>
      </trkpt>
      <trkpt lat="47.25947" lon="6.80987">
        <ele>889</ele>
        <time>2026-08-28T05:49:49Z</time>
      </trkpt>
      <trkpt lat="47.2594" lon="6.81017">
        <ele>893</ele>
        <time>2026-08-28T05:49:54Z</time>
      </trkpt>
      <trkpt lat="47.25941" lon="6.81058">
        <ele>899</ele>
        <time>2026-08-28T05:50:00Z</time>
      </trkpt>
      <trkpt lat="47.25945" lon="6.81077">
        <ele>901</ele>
        <time>2026-08-28T05:50:03Z</time>
      </trkpt>
      <trkpt lat="47.25902" lon="6.81091">
        <ele>907</ele>
        <time>2026-08-28T05:50:14Z</time>
      </trkpt>
      <trkpt lat="47.25825" lon="6.81102">
        <ele>908</ele>
        <time>2026-08-28T05:50:32Z</time>
      </trkpt>
      <trkpt lat="47.25781" lon="6.81116">
        <ele>906</ele>
        <time>2026-08-28T05:50:42Z</time>
      </trkpt>
      <trkpt lat="47.2575" lon="6.8114">
        <ele>905</ele>
        <time>2026-08-28T05:50:50Z</time>
      </trkpt>
      <trkpt lat="47.25767" lon="6.81177">
        <ele>909</ele>
        <time>2026-08-28T05:50:58Z</time>
      </trkpt>
      <trkpt lat="47.258" lon="6.81172">
        <ele>914</ele>
        <time>2026-08-28T05:51:05Z</time>
      </trkpt>
      <trkpt lat="47.25835" lon="6.81188">
        <ele>920</ele>
        <time>2026-08-28T05:51:14Z</time>
      </trkpt>
      <trkpt lat="47.25867" lon="6.8121">
        <ele>924</ele>
        <time>2026-08-28T05:51:22Z</time>
      </trkpt>
      <trkpt lat="47.25906" lon="6.81255">
        <ele>934</ele>
        <time>2026-08-28T05:51:34Z</time>
      </trkpt>
      <trkpt lat="47.25977" lon="6.81304">
        <ele>941</ele>
        <time>2026-08-28T05:51:52Z</time>
      </trkpt>
      <trkpt lat="47.26033" lon="6.81362">
        <ele>948</ele>
        <time>2026-08-28T05:52:08Z</time>
      </trkpt>
      <trkpt lat="47.26099" lon="6.81432">
        <ele>954</ele>
        <time>2026-08-28T05:52:27Z</time>
      </trkpt>
      <trkpt lat="47.2617" lon="6.81511">
        <ele>952</ele>
        <time>2026-08-28T05:52:48Z</time>
      </trkpt>
      <trkpt lat="47.26208" lon="6.81564">
        <ele>947</ele>
        <time>2026-08-28T05:53:00Z</time>
      </trkpt>
      <trkpt lat="47.26224" lon="6.81623">
        <ele>949</ele>
        <time>2026-08-28T05:53:10Z</time>
      </trkpt>
      <trkpt lat="47.26192" lon="6.81619">
        <ele>956</ele>
        <time>2026-08-28T05:53:18Z</time>
      </trkpt>
      <trkpt lat="47.2617" lon="6.81632">
        <ele>961</ele>
        <time>2026-08-28T05:53:23Z</time>
      </trkpt>
      <trkpt lat="47.26149" lon="6.8165">
        <ele>962</ele>
        <time>2026-08-28T05:53:29Z</time>
      </trkpt>
      <trkpt lat="47.26123" lon="6.81666">
        <ele>963</ele>
        <time>2026-08-28T05:53:35Z</time>
      </trkpt>
      <trkpt lat="47.26095" lon="6.81616">
        <ele>969</ele>
        <time>2026-08-28T05:53:46Z</time>
      </trkpt>
      <trkpt lat="47.26066" lon="6.81573">
        <ele>973</ele>
        <time>2026-08-28T05:53:55Z</time>
      </trkpt>
      <trkpt lat="47.26052" lon="6.81529">
        <ele>971</ele>
        <time>2026-08-28T05:54:03Z</time>
      </trkpt>
      <trkpt lat="47.26029" lon="6.81491">
        <ele>970</ele>
        <time>2026-08-28T05:54:11Z</time>
      </trkpt>
      <trkpt lat="47.25981" lon="6.81462">
        <ele>966</ele>
        <time>2026-08-28T05:54:23Z</time>
      </trkpt>
      <trkpt lat="47.25924" lon="6.81446">
        <ele>958</ele>
        <time>2026-08-28T05:54:37Z</time>
      </trkpt>
      <trkpt lat="47.25892" lon="6.81435">
        <ele>952</ele>
        <time>2026-08-28T05:54:44Z</time>
      </trkpt>
      <trkpt lat="47.25847" lon="6.81423">
        <ele>942</ele>
        <time>2026-08-28T05:54:55Z</time>
      </trkpt>
      <trkpt lat="47.25812" lon="6.81429">
        <ele>934</ele>
        <time>2026-08-28T05:55:03Z</time>
      </trkpt>
      <trkpt lat="47.25779" lon="6.81427">
        <ele>926</ele>
        <time>2026-08-28T05:55:11Z</time>
      </trkpt>
      <trkpt lat="47.25753" lon="6.81439">
        <ele>919</ele>
        <time>2026-08-28T05:55:17Z</time>
      </trkpt>
      <trkpt lat="47.2573" lon="6.81452">
        <ele>914</ele>
        <time>2026-08-28T05:55:23Z</time>
      </trkpt>
      <trkpt lat="47.25686" lon="6.81458">
        <ele>904</ele>
        <time>2026-08-28T05:55:33Z</time>
      </trkpt>
      <trkpt lat="47.2564" lon="6.81456">
        <ele>897</ele>
        <time>2026-08-28T05:55:44Z</time>
      </trkpt>
      <trkpt lat="47.25602" lon="6.81433">
        <ele>893</ele>
        <time>2026-08-28T05:55:54Z</time>
      </trkpt>
      <trkpt lat="47.2556" lon="6.81423">
        <ele>888</ele>
        <time>2026-08-28T05:56:04Z</time>
      </trkpt>
      <trkpt lat="47.25526" lon="6.81402">
        <ele>884</ele>
        <time>2026-08-28T05:56:12Z</time>
      </trkpt>
      <trkpt lat="47.25505" lon="6.81375">
        <ele>879</ele>
        <time>2026-08-28T05:56:19Z</time>
      </trkpt>
      <trkpt lat="47.25485" lon="6.81325">
        <ele>876</ele>
        <time>2026-08-28T05:56:28Z</time>
      </trkpt>
      <trkpt lat="47.25471" lon="6.81284">
        <ele>873</ele>
        <time>2026-08-28T05:56:35Z</time>
      </trkpt>
      <trkpt lat="47.25447" lon="6.81224">
        <ele>868</ele>
        <time>2026-08-28T05:56:46Z</time>
      </trkpt>
      <trkpt lat="47.25426" lon="6.81201">
        <ele>864</ele>
        <time>2026-08-28T05:56:52Z</time>
      </trkpt>
      <trkpt lat="47.25402" lon="6.8116">
        <ele>860</ele>
        <time>2026-08-28T05:57:01Z</time>
      </trkpt>
      <trkpt lat="47.25383" lon="6.81135">
        <ele>858</ele>
        <time>2026-08-28T05:57:07Z</time>
      </trkpt>
      <trkpt lat="47.2535" lon="6.81108">
        <ele>854</ele>
        <time>2026-08-28T05:57:16Z</time>
      </trkpt>
      <trkpt lat="47.25338" lon="6.81102">
        <ele>852</ele>
        <time>2026-08-28T05:57:19Z</time>
      </trkpt>
      <trkpt lat="47.25362" lon="6.8113">
        <ele>856</ele>
        <time>2026-08-28T05:57:26Z</time>
      </trkpt>
      <trkpt lat="47.25406" lon="6.81201">
        <ele>864</ele>
        <time>2026-08-28T05:57:41Z</time>
      </trkpt>
      <trkpt lat="47.25433" lon="6.81277">
        <ele>871</ele>
        <time>2026-08-28T05:57:55Z</time>
      </trkpt>
      <trkpt lat="47.25463" lon="6.81368">
        <ele>881</ele>
        <time>2026-08-28T05:58:11Z</time>
      </trkpt>
      <trkpt lat="47.25483" lon="6.81422">
        <ele>884</ele>
        <time>2026-08-28T05:58:20Z</time>
      </trkpt>
      <trkpt lat="47.25496" lon="6.81449">
        <ele>887</ele>
        <time>2026-08-28T05:58:26Z</time>
      </trkpt>
      <trkpt lat="47.25524" lon="6.81487">
        <ele>892</ele>
        <time>2026-08-28T05:58:35Z</time>
      </trkpt>
      <trkpt lat="47.25507" lon="6.81484">
        <ele>892</ele>
        <time>2026-08-28T05:58:39Z</time>
      </trkpt>
      <trkpt lat="47.25479" lon="6.81464">
        <ele>891</ele>
        <time>2026-08-28T05:58:46Z</time>
      </trkpt>
      <trkpt lat="47.25435" lon="6.81412">
        <ele>889</ele>
        <time>2026-08-28T05:58:59Z</time>
      </trkpt>
      <trkpt lat="47.25404" lon="6.81382">
        <ele>887</ele>
        <time>2026-08-28T05:59:08Z</time>
      </trkpt>
      <trkpt lat="47.2538" lon="6.81364">
        <ele>886</ele>
        <time>2026-08-28T05:59:14Z</time>
      </trkpt>
      <trkpt lat="47.25358" lon="6.81358">
        <ele>887</ele>
        <time>2026-08-28T05:59:19Z</time>
      </trkpt>
      <trkpt lat="47.25331" lon="6.81364">
        <ele>889</ele>
        <time>2026-08-28T05:59:26Z</time>
      </trkpt>
      <trkpt lat="47.25322" lon="6.8137">
        <ele>888</ele>
        <time>2026-08-28T05:59:28Z</time>
      </trkpt>
      <trkpt lat="47.25315" lon="6.81389">
        <ele>888</ele>
        <time>2026-08-28T05:59:31Z</time>
      </trkpt>
      <trkpt lat="47.25307" lon="6.81428">
        <ele>888</ele>
        <time>2026-08-28T05:59:38Z</time>
      </trkpt>
      <trkpt lat="47.25326" lon="6.8148">
        <ele>891</ele>
        <time>2026-08-28T05:59:47Z</time>
      </trkpt>
      <trkpt lat="47.25337" lon="6.81506">
        <ele>893</ele>
        <time>2026-08-28T05:59:52Z</time>
      </trkpt>
      <trkpt lat="47.25359" lon="6.81552">
        <ele>895</ele>
        <time>2026-08-28T06:00:01Z</time>
      </trkpt>
      <trkpt lat="47.25397" lon="6.81614">
        <ele>903</ele>
        <time>2026-08-28T06:00:14Z</time>
      </trkpt>
      <trkpt lat="47.25412" lon="6.81633">
        <ele>907</ele>
        <time>2026-08-28T06:00:19Z</time>
      </trkpt>
      <trkpt lat="47.25424" lon="6.81659">
        <ele>909</ele>
        <time>2026-08-28T06:00:24Z</time>
      </trkpt>
      <trkpt lat="47.2543" lon="6.8168">
        <ele>908</ele>
        <time>2026-08-28T06:00:27Z</time>
      </trkpt>
      <trkpt lat="47.2544" lon="6.81693">
        <ele>908</ele>
        <time>2026-08-28T06:00:30Z</time>
      </trkpt>
      <trkpt lat="47.25461" lon="6.81725">
        <ele>908</ele>
        <time>2026-08-28T06:00:38Z</time>
      </trkpt>
      <trkpt lat="47.25466" lon="6.81751">
        <ele>907</ele>
        <time>2026-08-28T06:00:42Z</time>
      </trkpt>
      <trkpt lat="47.25469" lon="6.81769">
        <ele>906</ele>
        <time>2026-08-28T06:00:45Z</time>
      </trkpt>
      <trkpt lat="47.25475" lon="6.81789">
        <ele>905</ele>
        <time>2026-08-28T06:00:48Z</time>
      </trkpt>
      <trkpt lat="47.25489" lon="6.81857">
        <ele>903</ele>
        <time>2026-08-28T06:00:59Z</time>
      </trkpt>
      <trkpt lat="47.255" lon="6.81917">
        <ele>903</ele>
        <time>2026-08-28T06:01:09Z</time>
      </trkpt>
      <trkpt lat="47.25531" lon="6.8207">
        <ele>905</ele>
        <time>2026-08-28T06:01:35Z</time>
      </trkpt>
      <trkpt lat="47.25558" lon="6.82174">
        <ele>904</ele>
        <time>2026-08-28T06:01:52Z</time>
      </trkpt>
      <trkpt lat="47.25601" lon="6.82295">
        <ele>905</ele>
        <time>2026-08-28T06:02:14Z</time>
      </trkpt>
      <trkpt lat="47.25653" lon="6.82422">
        <ele>910</ele>
        <time>2026-08-28T06:02:37Z</time>
      </trkpt>
      <trkpt lat="47.2568" lon="6.82527">
        <ele>903</ele>
        <time>2026-08-28T06:02:55Z</time>
      </trkpt>
      <trkpt lat="47.25702" lon="6.82581">
        <ele>897</ele>
        <time>2026-08-28T06:03:05Z</time>
      </trkpt>
      <trkpt lat="47.25711" lon="6.82592">
        <ele>897</ele>
        <time>2026-08-28T06:03:08Z</time>
      </trkpt>
      <trkpt lat="47.25721" lon="6.82606">
        <ele>896</ele>
        <time>2026-08-28T06:03:11Z</time>
      </trkpt>
      <trkpt lat="47.25777" lon="6.82693">
        <ele>897</ele>
        <time>2026-08-28T06:03:30Z</time>
      </trkpt>
      <trkpt lat="47.25809" lon="6.82744">
        <ele>901</ele>
        <time>2026-08-28T06:03:41Z</time>
      </trkpt>
      <trkpt lat="47.2583" lon="6.82769">
        <ele>905</ele>
        <time>2026-08-28T06:03:48Z</time>
      </trkpt>
      <trkpt lat="47.25834" lon="6.82779">
        <ele>904</ele>
        <time>2026-08-28T06:03:49Z</time>
      </trkpt>
      <trkpt lat="47.25835" lon="6.82782">
        <ele>904</ele>
        <time>2026-08-28T06:03:50Z</time>
      </trkpt>
      <trkpt lat="47.25842" lon="6.82842">
        <ele>895</ele>
        <time>2026-08-28T06:04:00Z</time>
      </trkpt>
      <trkpt lat="47.25847" lon="6.82841">
        <ele>897</ele>
        <time>2026-08-28T06:04:01Z</time>
      </trkpt>
      <trkpt lat="47.25848" lon="6.82841">
        <ele>897</ele>
        <time>2026-08-28T06:04:01Z</time>
      </trkpt>
      <trkpt lat="47.25855" lon="6.82845">
        <ele>898</ele>
        <time>2026-08-28T06:04:03Z</time>
      </trkpt>
      <trkpt lat="47.25898" lon="6.82896">
        <ele>902</ele>
        <time>2026-08-28T06:04:16Z</time>
      </trkpt>
      <trkpt lat="47.25925" lon="6.82924">
        <ele>906</ele>
        <time>2026-08-28T06:04:23Z</time>
      </trkpt>
      <trkpt lat="47.25973" lon="6.82968">
        <ele>915</ele>
        <time>2026-08-28T06:04:36Z</time>
      </trkpt>
      <trkpt lat="47.26003" lon="6.83001">
        <ele>920</ele>
        <time>2026-08-28T06:04:45Z</time>
      </trkpt>
      <trkpt lat="47.26017" lon="6.83022">
        <ele>917</ele>
        <time>2026-08-28T06:04:50Z</time>
      </trkpt>
      <trkpt lat="47.26041" lon="6.83031">
        <ele>919</ele>
        <time>2026-08-28T06:04:56Z</time>
      </trkpt>
      <trkpt lat="47.26061" lon="6.83032">
        <ele>922</ele>
        <time>2026-08-28T06:05:00Z</time>
      </trkpt>
      <trkpt lat="47.26071" lon="6.83018">
        <ele>925</ele>
        <time>2026-08-28T06:05:04Z</time>
      </trkpt>
      <trkpt lat="47.26076" lon="6.82998">
        <ele>928</ele>
        <time>2026-08-28T06:05:07Z</time>
      </trkpt>
      <trkpt lat="47.26077" lon="6.82977">
        <ele>930</ele>
        <time>2026-08-28T06:05:10Z</time>
      </trkpt>
      <trkpt lat="47.26077" lon="6.82961">
        <ele>932</ele>
        <time>2026-08-28T06:05:13Z</time>
      </trkpt>
      <trkpt lat="47.2608" lon="6.82946">
        <ele>934</ele>
        <time>2026-08-28T06:05:15Z</time>
      </trkpt>
      <trkpt lat="47.26076" lon="6.82929">
        <ele>935</ele>
        <time>2026-08-28T06:05:18Z</time>
      </trkpt>
      <trkpt lat="47.26072" lon="6.82907">
        <ele>937</ele>
        <time>2026-08-28T06:05:22Z</time>
      </trkpt>
      <trkpt lat="47.26069" lon="6.82863">
        <ele>941</ele>
        <time>2026-08-28T06:05:29Z</time>
      </trkpt>
      <trkpt lat="47.26067" lon="6.82849">
        <ele>942</ele>
        <time>2026-08-28T06:05:31Z</time>
      </trkpt>
      <trkpt lat="47.26063" lon="6.82824">
        <ele>944</ele>
        <time>2026-08-28T06:05:35Z</time>
      </trkpt>
      <trkpt lat="47.2606" lon="6.82809">
        <ele>945</ele>
        <time>2026-08-28T06:05:38Z</time>
      </trkpt>
      <trkpt lat="47.26058" lon="6.8279">
        <ele>946</ele>
        <time>2026-08-28T06:05:41Z</time>
      </trkpt>
      <trkpt lat="47.26059" lon="6.8277">
        <ele>948</ele>
        <time>2026-08-28T06:05:44Z</time>
      </trkpt>
      <trkpt lat="47.26059" lon="6.82746">
        <ele>951</ele>
        <time>2026-08-28T06:05:48Z</time>
      </trkpt>
      <trkpt lat="47.26062" lon="6.82708">
        <ele>953</ele>
        <time>2026-08-28T06:05:54Z</time>
      </trkpt>
      <trkpt lat="47.2606" lon="6.82686">
        <ele>955</ele>
        <time>2026-08-28T06:05:57Z</time>
      </trkpt>
      <trkpt lat="47.26056" lon="6.82659">
        <ele>957</ele>
        <time>2026-08-28T06:06:02Z</time>
      </trkpt>
      <trkpt lat="47.26051" lon="6.82642">
        <ele>958</ele>
        <time>2026-08-28T06:06:05Z</time>
      </trkpt>
      <trkpt lat="47.26047" lon="6.82622">
        <ele>960</ele>
        <time>2026-08-28T06:06:08Z</time>
      </trkpt>
      <trkpt lat="47.26042" lon="6.82604">
        <ele>961</ele>
        <time>2026-08-28T06:06:11Z</time>
      </trkpt>
      <trkpt lat="47.26031" lon="6.82579">
        <ele>963</ele>
        <time>2026-08-28T06:06:16Z</time>
      </trkpt>
      <trkpt lat="47.26008" lon="6.82534">
        <ele>967</ele>
        <time>2026-08-28T06:06:25Z</time>
      </trkpt>
      <trkpt lat="47.25996" lon="6.82458">
        <ele>972</ele>
        <time>2026-08-28T06:06:37Z</time>
      </trkpt>
      <trkpt lat="47.25992" lon="6.82444">
        <ele>972</ele>
        <time>2026-08-28T06:06:39Z</time>
      </trkpt>
      <trkpt lat="47.2599" lon="6.82421">
        <ele>972</ele>
        <time>2026-08-28T06:06:43Z</time>
      </trkpt>
      <trkpt lat="47.25983" lon="6.82399">
        <ele>972</ele>
        <time>2026-08-28T06:06:47Z</time>
      </trkpt>
      <trkpt lat="47.25958" lon="6.82345">
        <ele>974</ele>
        <time>2026-08-28T06:06:57Z</time>
      </trkpt>
      <trkpt lat="47.25955" lon="6.82332">
        <ele>975</ele>
        <time>2026-08-28T06:06:59Z</time>
      </trkpt>
      <trkpt lat="47.25953" lon="6.82323">
        <ele>975</ele>
        <time>2026-08-28T06:07:01Z</time>
      </trkpt>
      <trkpt lat="47.25944" lon="6.82275">
        <ele>976</ele>
        <time>2026-08-28T06:07:09Z</time>
      </trkpt>
      <trkpt lat="47.25921" lon="6.8221">
        <ele>979</ele>
        <time>2026-08-28T06:07:20Z</time>
      </trkpt>
      <trkpt lat="47.25907" lon="6.8217">
        <ele>978</ele>
        <time>2026-08-28T06:07:28Z</time>
      </trkpt>
      <trkpt lat="47.25882" lon="6.82129">
        <ele>974</ele>
        <time>2026-08-28T06:07:36Z</time>
      </trkpt>
      <trkpt lat="47.25858" lon="6.82052">
        <ele>968</ele>
        <time>2026-08-28T06:07:50Z</time>
      </trkpt>
      <trkpt lat="47.25839" lon="6.8201">
        <ele>968</ele>
        <time>2026-08-28T06:07:58Z</time>
      </trkpt>
      <trkpt lat="47.25828" lon="6.81981">
        <ele>964</ele>
        <time>2026-08-28T06:08:03Z</time>
      </trkpt>
      <trkpt lat="47.2582" lon="6.81946">
        <ele>957</ele>
        <time>2026-08-28T06:08:09Z</time>
      </trkpt>
      <trkpt lat="47.25792" lon="6.81912">
        <ele>953</ele>
        <time>2026-08-28T06:08:17Z</time>
      </trkpt>
      <trkpt lat="47.25775" lon="6.81899">
        <ele>952</ele>
        <time>2026-08-28T06:08:22Z</time>
      </trkpt>
      <trkpt lat="47.25746" lon="6.81889">
        <ele>953</ele>
        <time>2026-08-28T06:08:29Z</time>
      </trkpt>
      <trkpt lat="47.25725" lon="6.81875">
        <ele>948</ele>
        <time>2026-08-28T06:08:34Z</time>
      </trkpt>
      <trkpt lat="47.25707" lon="6.81851">
        <ele>943</ele>
        <time>2026-08-28T06:08:40Z</time>
      </trkpt>
      <trkpt lat="47.25686" lon="6.81825">
        <ele>939</ele>
        <time>2026-08-28T06:08:46Z</time>
      </trkpt>
      <trkpt lat="47.2567" lon="6.81811">
        <ele>938</ele>
        <time>2026-08-28T06:08:51Z</time>
      </trkpt>
      <trkpt lat="47.25654" lon="6.81803">
        <ele>935</ele>
        <time>2026-08-28T06:08:54Z</time>
      </trkpt>
      <trkpt lat="47.25647" lon="6.818">
        <ele>934</ele>
        <time>2026-08-28T06:08:56Z</time>
      </trkpt>
      <trkpt lat="47.25636" lon="6.81778">
        <ele>932</ele>
        <time>2026-08-28T06:09:01Z</time>
      </trkpt>
      <trkpt lat="47.2563" lon="6.81762">
        <ele>931</ele>
        <time>2026-08-28T06:09:03Z</time>
      </trkpt>
      <trkpt lat="47.25619" lon="6.8174">
        <ele>929</ele>
        <time>2026-08-28T06:09:08Z</time>
      </trkpt>
      <trkpt lat="47.25601" lon="6.8173">
        <ele>928</ele>
        <time>2026-08-28T06:09:12Z</time>
      </trkpt>
      <trkpt lat="47.25593" lon="6.81702">
        <ele>925</ele>
        <time>2026-08-28T06:09:17Z</time>
      </trkpt>
      <trkpt lat="47.25593" lon="6.81689">
        <ele>924</ele>
        <time>2026-08-28T06:09:19Z</time>
      </trkpt>
      <trkpt lat="47.25593" lon="6.81672">
        <ele>923</ele>
        <time>2026-08-28T06:09:22Z</time>
      </trkpt>
      <trkpt lat="47.25589" lon="6.81656">
        <ele>920</ele>
        <time>2026-08-28T06:09:25Z</time>
      </trkpt>
      <trkpt lat="47.25582" lon="6.81675">
        <ele>923</ele>
        <time>2026-08-28T06:09:28Z</time>
      </trkpt>
      <trkpt lat="47.2557" lon="6.81661">
        <ele>921</ele>
        <time>2026-08-28T06:09:32Z</time>
      </trkpt>
      <trkpt lat="47.25556" lon="6.81645">
        <ele>917</ele>
        <time>2026-08-28T06:09:36Z</time>
      </trkpt>
      <trkpt lat="47.25537" lon="6.81628">
        <ele>914</ele>
        <time>2026-08-28T06:09:41Z</time>
      </trkpt>
      <trkpt lat="47.2552" lon="6.81619">
        <ele>912</ele>
        <time>2026-08-28T06:09:45Z</time>
      </trkpt>
      <trkpt lat="47.25503" lon="6.81606">
        <ele>911</ele>
        <time>2026-08-28T06:09:50Z</time>
      </trkpt>
      <trkpt lat="47.25484" lon="6.81582">
        <ele>908</ele>
        <time>2026-08-28T06:09:55Z</time>
      </trkpt>
      <trkpt lat="47.25469" lon="6.81559">
        <ele>905</ele>
        <time>2026-08-28T06:10:00Z</time>
      </trkpt>
      <trkpt lat="47.25452" lon="6.81538">
        <ele>903</ele>
        <time>2026-08-28T06:10:06Z</time>
      </trkpt>
      <trkpt lat="47.25436" lon="6.81516">
        <ele>902</ele>
        <time>2026-08-28T06:10:11Z</time>
      </trkpt>
      <trkpt lat="47.25422" lon="6.81501">
        <ele>903</ele>
        <time>2026-08-28T06:10:15Z</time>
      </trkpt>
      <trkpt lat="47.25406" lon="6.81472">
        <ele>899</ele>
        <time>2026-08-28T06:10:21Z</time>
      </trkpt>
      <trkpt lat="47.25393" lon="6.81447">
        <ele>895</ele>
        <time>2026-08-28T06:10:26Z</time>
      </trkpt>
      <trkpt lat="47.25378" lon="6.81417">
        <ele>893</ele>
        <time>2026-08-28T06:10:32Z</time>
      </trkpt>
      <trkpt lat="47.25373" lon="6.81396">
        <ele>891</ele>
        <time>2026-08-28T06:10:35Z</time>
      </trkpt>
      <trkpt lat="47.25372" lon="6.81379">
        <ele>889</ele>
        <time>2026-08-28T06:10:38Z</time>
      </trkpt>
      <trkpt lat="47.25371" lon="6.81335">
        <ele>884</ele>
        <time>2026-08-28T06:10:45Z</time>
      </trkpt>
      <trkpt lat="47.25353" lon="6.81313">
        <ele>882</ele>
        <time>2026-08-28T06:10:50Z</time>
      </trkpt>
      <trkpt lat="47.25336" lon="6.81281">
        <ele>879</ele>
        <time>2026-08-28T06:10:57Z</time>
      </trkpt>
      <trkpt lat="47.25317" lon="6.8126">
        <ele>875</ele>
        <time>2026-08-28T06:11:02Z</time>
      </trkpt>
      <trkpt lat="47.25306" lon="6.81238">
        <ele>871</ele>
        <time>2026-08-28T06:11:07Z</time>
      </trkpt>
      <trkpt lat="47.25297" lon="6.81217">
        <ele>867</ele>
        <time>2026-08-28T06:11:11Z</time>
      </trkpt>
      <trkpt lat="47.25283" lon="6.81179">
        <ele>860</ele>
        <time>2026-08-28T06:11:17Z</time>
      </trkpt>
      <trkpt lat="47.25272" lon="6.81141">
        <ele>854</ele>
        <time>2026-08-28T06:11:24Z</time>
      </trkpt>
      <trkpt lat="47.25261" lon="6.81113">
        <ele>848</ele>
        <time>2026-08-28T06:11:29Z</time>
      </trkpt>
      <trkpt lat="47.25253" lon="6.81078">
        <ele>840</ele>
        <time>2026-08-28T06:11:35Z</time>
      </trkpt>
      <trkpt lat="47.25245" lon="6.81046">
        <ele>833</ele>
        <time>2026-08-28T06:11:40Z</time>
      </trkpt>
      <trkpt lat="47.2524" lon="6.81022">
        <ele>828</ele>
        <time>2026-08-28T06:11:44Z</time>
      </trkpt>
      <trkpt lat="47.25237" lon="6.81001">
        <ele>824</ele>
        <time>2026-08-28T06:11:48Z</time>
      </trkpt>
      <trkpt lat="47.25233" lon="6.80973">
        <ele>819</ele>
        <time>2026-08-28T06:11:52Z</time>
      </trkpt>
      <trkpt lat="47.25263" lon="6.80971">
        <ele>822</ele>
        <time>2026-08-28T06:11:59Z</time>
      </trkpt>
      <trkpt lat="47.25288" lon="6.80976">
        <ele>825</ele>
        <time>2026-08-28T06:12:05Z</time>
      </trkpt>
      <trkpt lat="47.25316" lon="6.81007">
        <ele>836</ele>
        <time>2026-08-28T06:12:13Z</time>
      </trkpt>
      <trkpt lat="47.2535" lon="6.81055">
        <ele>847</ele>
        <time>2026-08-28T06:12:24Z</time>
      </trkpt>
      <trkpt lat="47.25388" lon="6.8107">
        <ele>852</ele>
        <time>2026-08-28T06:12:33Z</time>
      </trkpt>
      <trkpt lat="47.25426" lon="6.81082">
        <ele>857</ele>
        <time>2026-08-28T06:12:43Z</time>
      </trkpt>
      <trkpt lat="47.25486" lon="6.81092">
        <ele>863</ele>
        <time>2026-08-28T06:12:57Z</time>
      </trkpt>
      <trkpt lat="47.2554" lon="6.81092">
        <ele>872</ele>
        <time>2026-08-28T06:13:09Z</time>
      </trkpt>
      <trkpt lat="47.25609" lon="6.81113">
        <ele>883</ele>
        <time>2026-08-28T06:13:26Z</time>
      </trkpt>
      <trkpt lat="47.25662" lon="6.81116">
        <ele>890</ele>
        <time>2026-08-28T06:13:38Z</time>
      </trkpt>
      <trkpt lat="47.25713" lon="6.81118">
        <ele>898</ele>
        <time>2026-08-28T06:13:50Z</time>
      </trkpt>
      <trkpt lat="47.25745" lon="6.8113">
        <ele>903</ele>
        <time>2026-08-28T06:13:58Z</time>
      </trkpt>
      <trkpt lat="47.25765" lon="6.8111">
        <ele>905</ele>
        <time>2026-08-28T06:14:03Z</time>
      </trkpt>
      <trkpt lat="47.25807" lon="6.81096">
        <ele>906</ele>
        <time>2026-08-28T06:14:13Z</time>
      </trkpt>
      <trkpt lat="47.25846" lon="6.8109">
        <ele>907</ele>
        <time>2026-08-28T06:14:23Z</time>
      </trkpt>
      <trkpt lat="47.25887" lon="6.81083">
        <ele>906</ele>
        <time>2026-08-28T06:14:32Z</time>
      </trkpt>
      <trkpt lat="47.25935" lon="6.81075">
        <ele>902</ele>
        <time>2026-08-28T06:14:44Z</time>
      </trkpt>
      <trkpt lat="47.25927" lon="6.81064">
        <ele>902</ele>
        <time>2026-08-28T06:14:46Z</time>
      </trkpt>
      <trkpt lat="47.25914" lon="6.81035">
        <ele>898</ele>
        <time>2026-08-28T06:14:52Z</time>
      </trkpt>
      <trkpt lat="47.25909" lon="6.81013">
        <ele>894</ele>
        <time>2026-08-28T06:14:55Z</time>
      </trkpt>
      <trkpt lat="47.25908" lon="6.80994">
        <ele>892</ele>
        <time>2026-08-28T06:14:58Z</time>
      </trkpt>
      <trkpt lat="47.25899" lon="6.80976">
        <ele>891</ele>
        <time>2026-08-28T06:15:02Z</time>
      </trkpt>
      <trkpt lat="47.25873" lon="6.80965">
        <ele>890</ele>
        <time>2026-08-28T06:15:08Z</time>
      </trkpt>
      <trkpt lat="47.25849" lon="6.80965">
        <ele>889</ele>
        <time>2026-08-28T06:15:14Z</time>
      </trkpt>
      <trkpt lat="47.25807" lon="6.80955">
        <ele>885</ele>
        <time>2026-08-28T06:15:24Z</time>
      </trkpt>
      <trkpt lat="47.25779" lon="6.80944">
        <ele>881</ele>
        <time>2026-08-28T06:15:30Z</time>
      </trkpt>
      <trkpt lat="47.25751" lon="6.80933">
        <ele>876</ele>
        <time>2026-08-28T06:15:37Z</time>
      </trkpt>
      <trkpt lat="47.25715" lon="6.80924">
        <ele>871</ele>
        <time>2026-08-28T06:15:46Z</time>
      </trkpt>
      <trkpt lat="47.25686" lon="6.80912">
        <ele>867</ele>
        <time>2026-08-28T06:15:53Z</time>
      </trkpt>
      <trkpt lat="47.2566" lon="6.80896">
        <ele>865</ele>
        <time>2026-08-28T06:15:59Z</time>
      </trkpt>
      <trkpt lat="47.25637" lon="6.80886">
        <ele>859</ele>
        <time>2026-08-28T06:16:05Z</time>
      </trkpt>
      <trkpt lat="47.25611" lon="6.80874">
        <ele>851</ele>
        <time>2026-08-28T06:16:11Z</time>
      </trkpt>
      <trkpt lat="47.25589" lon="6.80867">
        <ele>844</ele>
        <time>2026-08-28T06:16:17Z</time>
      </trkpt>
      <trkpt lat="47.25569" lon="6.8087">
        <ele>839</ele>
        <time>2026-08-28T06:16:21Z</time>
      </trkpt>
      <trkpt lat="47.25555" lon="6.8087">
        <ele>835</ele>
        <time>2026-08-28T06:16:25Z</time>
      </trkpt>
      <trkpt lat="47.25549" lon="6.80889">
        <ele>835</ele>
        <time>2026-08-28T06:16:28Z</time>
      </trkpt>
      <trkpt lat="47.2559" lon="6.80909">
        <ele>847</ele>
        <time>2026-08-28T06:16:38Z</time>
      </trkpt>
      <trkpt lat="47.25644" lon="6.80937">
        <ele>863</ele>
        <time>2026-08-28T06:16:51Z</time>
      </trkpt>
      <trkpt lat="47.25712" lon="6.8097">
        <ele>877</ele>
        <time>2026-08-28T06:17:08Z</time>
      </trkpt>
      <trkpt lat="47.25774" lon="6.80998">
        <ele>887</ele>
        <time>2026-08-28T06:17:23Z</time>
      </trkpt>
      <trkpt lat="47.25834" lon="6.81028">
        <ele>896</ele>
        <time>2026-08-28T06:17:38Z</time>
      </trkpt>
      <trkpt lat="47.25895" lon="6.81058">
        <ele>902</ele>
        <time>2026-08-28T06:17:53Z</time>
      </trkpt>
      <trkpt lat="47.25946" lon="6.81086">
        <ele>903</ele>
        <time>2026-08-28T06:18:06Z</time>
      </trkpt>
      <trkpt lat="47.2594" lon="6.81083">
        <ele>903</ele>
        <time>2026-08-28T06:18:07Z</time>
      </trkpt>
      <trkpt lat="47.25961" lon="6.81041">
        <ele>894</ele>
        <time>2026-08-28T06:18:15Z</time>
      </trkpt>
      <trkpt lat="47.25991" lon="6.8098">
        <ele>886</ele>
        <time>2026-08-28T06:18:27Z</time>
      </trkpt>
      <trkpt lat="47.26009" lon="6.80938">
        <ele>886</ele>
        <time>2026-08-28T06:18:35Z</time>
      </trkpt>
      <trkpt lat="47.26014" lon="6.809">
        <ele>888</ele>
        <time>2026-08-28T06:18:41Z</time>
      </trkpt>
      <trkpt lat="47.26" lon="6.80863">
        <ele>891</ele>
        <time>2026-08-28T06:18:48Z</time>
      </trkpt>
      <trkpt lat="47.25968" lon="6.80814">
        <ele>893</ele>
        <time>2026-08-28T06:18:59Z</time>
      </trkpt>
      <trkpt lat="47.25941" lon="6.80767">
        <ele>894</ele>
        <time>2026-08-28T06:19:09Z</time>
      </trkpt>
      <trkpt lat="47.25888" lon="6.80722">
        <ele>894</ele>
        <time>2026-08-28T06:19:23Z</time>
      </trkpt>
      <trkpt lat="47.25838" lon="6.80669">
        <ele>901</ele>
        <time>2026-08-28T06:19:37Z</time>
      </trkpt>
      <trkpt lat="47.25819" lon="6.80656">
        <ele>900</ele>
        <time>2026-08-28T06:19:42Z</time>
      </trkpt>
      <trkpt lat="47.25802" lon="6.80668">
        <ele>901</ele>
        <time>2026-08-28T06:19:47Z</time>
      </trkpt>
      <trkpt lat="47.2579" lon="6.80682">
        <ele>900</ele>
        <time>2026-08-28T06:19:50Z</time>
      </trkpt>
      <trkpt lat="47.25769" lon="6.80663">
        <ele>900</ele>
        <time>2026-08-28T06:19:56Z</time>
      </trkpt>
      <trkpt lat="47.25754" lon="6.80663">
        <ele>900</ele>
        <time>2026-08-28T06:19:59Z</time>
      </trkpt>
      <trkpt lat="47.2573" lon="6.80654">
        <ele>897</ele>
        <time>2026-08-28T06:20:05Z</time>
      </trkpt>
      <trkpt lat="47.25709" lon="6.80626">
        <ele>896</ele>
        <time>2026-08-28T06:20:12Z</time>
      </trkpt>
      <trkpt lat="47.25676" lon="6.80618">
        <ele>893</ele>
        <time>2026-08-28T06:20:20Z</time>
      </trkpt>
      <trkpt lat="47.2564" lon="6.80615">
        <ele>887</ele>
        <time>2026-08-28T06:20:28Z</time>
      </trkpt>
      <trkpt lat="47.25619" lon="6.80618">
        <ele>882</ele>
        <time>2026-08-28T06:20:33Z</time>
      </trkpt>
      <trkpt lat="47.25605" lon="6.80598">
        <ele>882</ele>
        <time>2026-08-28T06:20:38Z</time>
      </trkpt>
      <trkpt lat="47.25588" lon="6.80562">
        <ele>880</ele>
        <time>2026-08-28T06:20:45Z</time>
      </trkpt>
      <trkpt lat="47.2557" lon="6.80522">
        <ele>875</ele>
        <time>2026-08-28T06:20:52Z</time>
      </trkpt>
      <trkpt lat="47.25554" lon="6.80473">
        <ele>867</ele>
        <time>2026-08-28T06:21:01Z</time>
      </trkpt>
      <trkpt lat="47.25547" lon="6.80435">
        <ele>862</ele>
        <time>2026-08-28T06:21:07Z</time>
      </trkpt>
      <trkpt lat="47.25545" lon="6.80414">
        <ele>860</ele>
        <time>2026-08-28T06:21:10Z</time>
      </trkpt>
      <trkpt lat="47.25545" lon="6.80398">
        <ele>856</ele>
        <time>2026-08-28T06:21:13Z</time>
      </trkpt>
      <trkpt lat="47.25546" lon="6.80393">
        <ele>855</ele>
        <time>2026-08-28T06:21:14Z</time>
      </trkpt>
      <trkpt lat="47.25561" lon="6.80383">
        <ele>857</ele>
        <time>2026-08-28T06:21:18Z</time>
      </trkpt>
      <trkpt lat="47.25562" lon="6.80377">
        <ele>856</ele>
        <time>2026-08-28T06:21:19Z</time>
      </trkpt>
      <trkpt lat="47.25552" lon="6.80373">
        <ele>852</ele>
        <time>2026-08-28T06:21:21Z</time>
      </trkpt>
      <trkpt lat="47.25549" lon="6.80367">
        <ele>850</ele>
        <time>2026-08-28T06:21:22Z</time>
      </trkpt>
      <trkpt lat="47.25523" lon="6.80376">
        <ele>846</ele>
        <time>2026-08-28T06:21:28Z</time>
      </trkpt>
      <trkpt lat="47.25502" lon="6.80415">
        <ele>849</ele>
        <time>2026-08-28T06:21:36Z</time>
      </trkpt>
      <trkpt lat="47.25498" lon="6.80419">
        <ele>848</ele>
        <time>2026-08-28T06:21:37Z</time>
      </trkpt>
      <trkpt lat="47.25494" lon="6.80407">
        <ele>845</ele>
        <time>2026-08-28T06:21:39Z</time>
      </trkpt>
      <trkpt lat="47.25498" lon="6.80396">
        <ele>844</ele>
        <time>2026-08-28T06:21:41Z</time>
      </trkpt>
      <trkpt lat="47.25501" lon="6.80388">
        <ele>843</ele>
        <time>2026-08-28T06:21:43Z</time>
      </trkpt>
      <trkpt lat="47.25501" lon="6.80359">
        <ele>837</ele>
        <time>2026-08-28T06:21:48Z</time>
      </trkpt>
      <trkpt lat="47.25497" lon="6.80347">
        <ele>833</ele>
        <time>2026-08-28T06:21:50Z</time>
      </trkpt>
      <trkpt lat="47.25499" lon="6.80338">
        <ele>832</ele>
        <time>2026-08-28T06:21:51Z</time>
      </trkpt>
      <trkpt lat="47.25512" lon="6.80318">
        <ele>830</ele>
        <time>2026-08-28T06:21:56Z</time>
      </trkpt>
      <trkpt lat="47.25514" lon="6.80298">
        <ele>825</ele>
        <time>2026-08-28T06:21:59Z</time>
      </trkpt>
      <trkpt lat="47.25525" lon="6.80288">
        <ele>825</ele>
        <time>2026-08-28T06:22:02Z</time>
      </trkpt>
      <trkpt lat="47.25536" lon="6.80282">
        <ele>825</ele>
        <time>2026-08-28T06:22:04Z</time>
      </trkpt>
      <trkpt lat="47.2554" lon="6.80254">
        <ele>817</ele>
        <time>2026-08-28T06:22:09Z</time>
      </trkpt>
      <trkpt lat="47.25541" lon="6.80254">
        <ele>818</ele>
        <time>2026-08-28T06:22:09Z</time>
      </trkpt>
      <trkpt lat="47.25599" lon="6.80212">
        <ele>813</ele>
        <time>2026-08-28T06:22:24Z</time>
      </trkpt>
      <trkpt lat="47.25619" lon="6.80196">
        <ele>810</ele>
        <time>2026-08-28T06:22:30Z</time>
      </trkpt>
      <trkpt lat="47.25621" lon="6.8019">
        <ele>809</ele>
        <time>2026-08-28T06:22:31Z</time>
      </trkpt>
      <trkpt lat="47.25574" lon="6.80176">
        <ele>801</ele>
        <time>2026-08-28T06:22:42Z</time>
      </trkpt>
      <trkpt lat="47.25511" lon="6.80158">
        <ele>794</ele>
        <time>2026-08-28T06:22:57Z</time>
      </trkpt>
      <trkpt lat="47.25475" lon="6.80151">
        <ele>790</ele>
        <time>2026-08-28T06:23:05Z</time>
      </trkpt>
      <trkpt lat="47.25463" lon="6.8015">
        <ele>788</ele>
        <time>2026-08-28T06:23:08Z</time>
      </trkpt>
      <trkpt lat="47.25447" lon="6.80152">
        <ele>787</ele>
        <time>2026-08-28T06:23:12Z</time>
      </trkpt>
      <trkpt lat="47.25438" lon="6.80155">
        <ele>786</ele>
        <time>2026-08-28T06:23:14Z</time>
      </trkpt>
      <trkpt lat="47.25425" lon="6.80162">
        <ele>785</ele>
        <time>2026-08-28T06:23:17Z</time>
      </trkpt>
      <trkpt lat="47.2542" lon="6.80166">
        <ele>785</ele>
        <time>2026-08-28T06:23:19Z</time>
      </trkpt>
      <trkpt lat="47.25398" lon="6.80183">
        <ele>785</ele>
        <time>2026-08-28T06:23:24Z</time>
      </trkpt>
      <trkpt lat="47.25345" lon="6.80232">
        <ele>784</ele>
        <time>2026-08-28T06:23:39Z</time>
      </trkpt>
      <trkpt lat="47.2534" lon="6.80237">
        <ele>783</ele>
        <time>2026-08-28T06:23:40Z</time>
      </trkpt>
      <trkpt lat="47.25331" lon="6.80252">
        <ele>783</ele>
        <time>2026-08-28T06:23:44Z</time>
      </trkpt>
      <trkpt lat="47.25323" lon="6.8027">
        <ele>784</ele>
        <time>2026-08-28T06:23:47Z</time>
      </trkpt>
      <trkpt lat="47.25315" lon="6.80285">
        <ele>785</ele>
        <time>2026-08-28T06:23:50Z</time>
      </trkpt>
      <trkpt lat="47.2531" lon="6.80291">
        <ele>785</ele>
        <time>2026-08-28T06:23:52Z</time>
      </trkpt>
      <trkpt lat="47.25306" lon="6.80291">
        <ele>785</ele>
        <time>2026-08-28T06:23:53Z</time>
      </trkpt>
      <trkpt lat="47.25303" lon="6.8029">
        <ele>785</ele>
        <time>2026-08-28T06:23:53Z</time>
      </trkpt>
      <trkpt lat="47.25301" lon="6.80286">
        <ele>784</ele>
        <time>2026-08-28T06:23:54Z</time>
      </trkpt>
      <trkpt lat="47.25299" lon="6.8028">
        <ele>784</ele>
        <time>2026-08-28T06:23:55Z</time>
      </trkpt>
      <trkpt lat="47.25299" lon="6.80272">
        <ele>783</ele>
        <time>2026-08-28T06:23:56Z</time>
      </trkpt>
      <trkpt lat="47.25302" lon="6.80257">
        <ele>783</ele>
        <time>2026-08-28T06:23:59Z</time>
      </trkpt>
      <trkpt lat="47.25304" lon="6.8025">
        <ele>782</ele>
        <time>2026-08-28T06:24:00Z</time>
      </trkpt>
      <trkpt lat="47.25319" lon="6.80199">
        <ele>780</ele>
        <time>2026-08-28T06:24:09Z</time>
      </trkpt>
      <trkpt lat="47.25321" lon="6.80192">
        <ele>780</ele>
        <time>2026-08-28T06:24:10Z</time>
      </trkpt>
      <trkpt lat="47.25319" lon="6.80192">
        <ele>780</ele>
        <time>2026-08-28T06:24:11Z</time>
      </trkpt>
      <trkpt lat="47.25312" lon="6.80192">
        <ele>780</ele>
        <time>2026-08-28T06:24:12Z</time>
      </trkpt>
      <trkpt lat="47.25303" lon="6.80188">
        <ele>779</ele>
        <time>2026-08-28T06:24:14Z</time>
      </trkpt>
      <trkpt lat="47.25279" lon="6.80175">
        <ele>779</ele>
        <time>2026-08-28T06:24:20Z</time>
      </trkpt>
      <trkpt lat="47.25258" lon="6.8016">
        <ele>779</ele>
        <time>2026-08-28T06:24:26Z</time>
      </trkpt>
      <trkpt lat="47.25246" lon="6.80145">
        <ele>778</ele>
        <time>2026-08-28T06:24:29Z</time>
      </trkpt>
      <trkpt lat="47.25229" lon="6.80121">
        <ele>778</ele>
        <time>2026-08-28T06:24:35Z</time>
      </trkpt>
      <trkpt lat="47.25217" lon="6.801">
        <ele>778</ele>
        <time>2026-08-28T06:24:39Z</time>
      </trkpt>
      <trkpt lat="47.25194" lon="6.80054">
        <ele>780</ele>
        <time>2026-08-28T06:24:48Z</time>
      </trkpt>
      <trkpt lat="47.25188" lon="6.80042">
        <ele>781</ele>
        <time>2026-08-28T06:24:51Z</time>
      </trkpt>
      <trkpt lat="47.25167" lon="6.80003">
        <ele>783</ele>
        <time>2026-08-28T06:24:59Z</time>
      </trkpt>
      <trkpt lat="47.2516" lon="6.79997">
        <ele>783</ele>
        <time>2026-08-28T06:25:01Z</time>
      </trkpt>
      <trkpt lat="47.25166" lon="6.79989">
        <ele>783</ele>
        <time>2026-08-28T06:25:02Z</time>
      </trkpt>
      <trkpt lat="47.2518" lon="6.79975">
        <ele>782</ele>
        <time>2026-08-28T06:25:06Z</time>
      </trkpt>
      <trkpt lat="47.25184" lon="6.79948">
        <ele>782</ele>
        <time>2026-08-28T06:25:11Z</time>
      </trkpt>
      <trkpt lat="47.2519" lon="6.79904">
        <ele>782</ele>
        <time>2026-08-28T06:25:18Z</time>
      </trkpt>
      <trkpt lat="47.25189" lon="6.79896">
        <ele>781</ele>
        <time>2026-08-28T06:25:19Z</time>
      </trkpt>
      <trkpt lat="47.25187" lon="6.79892">
        <ele>781</ele>
        <time>2026-08-28T06:25:20Z</time>
      </trkpt>
      <trkpt lat="47.25183" lon="6.79887">
        <ele>781</ele>
        <time>2026-08-28T06:25:21Z</time>
      </trkpt>
      <trkpt lat="47.2516" lon="6.7988">
        <ele>781</ele>
        <time>2026-08-28T06:25:27Z</time>
      </trkpt>
      <trkpt lat="47.25163" lon="6.79865">
        <ele>781</ele>
        <time>2026-08-28T06:25:29Z</time>
      </trkpt>
      <trkpt lat="47.2516" lon="6.79864">
        <ele>781</ele>
        <time>2026-08-28T06:25:30Z</time>
      </trkpt>
      <trkpt lat="47.25156" lon="6.7988">
        <ele>781</ele>
        <time>2026-08-28T06:25:33Z</time>
      </trkpt>
      <trkpt lat="47.25146" lon="6.79874">
        <ele>781</ele>
        <time>2026-08-28T06:25:35Z</time>
      </trkpt>
      <trkpt lat="47.25143" lon="6.79873">
        <ele>781</ele>
        <time>2026-08-28T06:25:36Z</time>
      </trkpt>
      <trkpt lat="47.25134" lon="6.79868">
        <ele>781</ele>
        <time>2026-08-28T06:25:38Z</time>
      </trkpt>
      <trkpt lat="47.25133" lon="6.7987">
        <ele>781</ele>
        <time>2026-08-28T06:25:38Z</time>
      </trkpt>
      <trkpt lat="47.25131" lon="6.79867">
        <ele>781</ele>
        <time>2026-08-28T06:25:39Z</time>
      </trkpt>
      <trkpt lat="47.25129" lon="6.79858">
        <ele>780</ele>
        <time>2026-08-28T06:25:41Z</time>
      </trkpt>
      <trkpt lat="47.2512" lon="6.79838">
        <ele>780</ele>
        <time>2026-08-28T06:25:44Z</time>
      </trkpt>
      <trkpt lat="47.25113" lon="6.79828">
        <ele>779</ele>
        <time>2026-08-28T06:25:47Z</time>
      </trkpt>
      <trkpt lat="47.25108" lon="6.79822">
        <ele>780</ele>
        <time>2026-08-28T06:25:48Z</time>
      </trkpt>
      <trkpt lat="47.25096" lon="6.79816">
        <ele>780</ele>
        <time>2026-08-28T06:25:51Z</time>
      </trkpt>
      <trkpt lat="47.25065" lon="6.79769">
        <ele>784</ele>
        <time>2026-08-28T06:26:02Z</time>
      </trkpt>
      <trkpt lat="47.25027" lon="6.79793">
        <ele>787</ele>
        <time>2026-08-28T06:26:11Z</time>
      </trkpt>
      <trkpt lat="47.25017" lon="6.79831">
        <ele>786</ele>
        <time>2026-08-28T06:26:18Z</time>
      </trkpt>
      <trkpt lat="47.24998" lon="6.79851">
        <ele>788</ele>
        <time>2026-08-28T06:26:23Z</time>
      </trkpt>
      <trkpt lat="47.24998" lon="6.79759">
        <ele>791</ele>
        <time>2026-08-28T06:26:38Z</time>
      </trkpt>
      <trkpt lat="47.24995" lon="6.79709">
        <ele>793</ele>
        <time>2026-08-28T06:26:46Z</time>
      </trkpt>
      <trkpt lat="47.25011" lon="6.79672">
        <ele>793</ele>
        <time>2026-08-28T06:26:53Z</time>
      </trkpt>
      <trkpt lat="47.25009" lon="6.79631">
        <ele>795</ele>
        <time>2026-08-28T06:26:59Z</time>
      </trkpt>
      <trkpt lat="47.25001" lon="6.79622">
        <ele>797</ele>
        <time>2026-08-28T06:27:01Z</time>
      </trkpt>
      <trkpt lat="47.24989" lon="6.79609">
        <ele>800</ele>
        <time>2026-08-28T06:27:05Z</time>
      </trkpt>
      <trkpt lat="47.24988" lon="6.79588">
        <ele>801</ele>
        <time>2026-08-28T06:27:08Z</time>
      </trkpt>
      <trkpt lat="47.24989" lon="6.79529">
        <ele>804</ele>
        <time>2026-08-28T06:27:18Z</time>
      </trkpt>
      <trkpt lat="47.24985" lon="6.79477">
        <ele>805</ele>
        <time>2026-08-28T06:27:26Z</time>
      </trkpt>
      <trkpt lat="47.24974" lon="6.79476">
        <ele>805</ele>
        <time>2026-08-28T06:27:28Z</time>
      </trkpt>
      <trkpt lat="47.24945" lon="6.79437">
        <ele>805</ele>
        <time>2026-08-28T06:27:38Z</time>
      </trkpt>
      <trkpt lat="47.24932" lon="6.79412">
        <ele>805</ele>
        <time>2026-08-28T06:27:43Z</time>
      </trkpt>
      <trkpt lat="47.24929" lon="6.79406">
        <ele>805</ele>
        <time>2026-08-28T06:27:44Z</time>
      </trkpt>
      <trkpt lat="47.24923" lon="6.79385">
        <ele>805</ele>
        <time>2026-08-28T06:27:47Z</time>
      </trkpt>
      <trkpt lat="47.24915" lon="6.79385">
        <ele>806</ele>
        <time>2026-08-28T06:27:49Z</time>
      </trkpt>
      <trkpt lat="47.24909" lon="6.79383">
        <ele>807</ele>
        <time>2026-08-28T06:27:51Z</time>
      </trkpt>
      <trkpt lat="47.24894" lon="6.79367">
        <ele>810</ele>
        <time>2026-08-28T06:27:55Z</time>
      </trkpt>
      <trkpt lat="47.24889" lon="6.79359">
        <ele>811</ele>
        <time>2026-08-28T06:27:57Z</time>
      </trkpt>
      <trkpt lat="47.24886" lon="6.79347">
        <ele>811</ele>
        <time>2026-08-28T06:27:59Z</time>
      </trkpt>
      <trkpt lat="47.24884" lon="6.79346">
        <ele>811</ele>
        <time>2026-08-28T06:27:59Z</time>
      </trkpt>
      <trkpt lat="47.2484" lon="6.79367">
        <ele>821</ele>
        <time>2026-08-28T06:28:10Z</time>
      </trkpt>
      <trkpt lat="47.24851" lon="6.79411">
        <ele>822</ele>
        <time>2026-08-28T06:28:18Z</time>
      </trkpt>
      <trkpt lat="47.24853" lon="6.79447">
        <ele>824</ele>
        <time>2026-08-28T06:28:23Z</time>
      </trkpt>
      <trkpt lat="47.24866" lon="6.7951">
        <ele>824</ele>
        <time>2026-08-28T06:28:34Z</time>
      </trkpt>
      <trkpt lat="47.24878" lon="6.79549">
        <ele>822</ele>
        <time>2026-08-28T06:28:41Z</time>
      </trkpt>
      <trkpt lat="47.24881" lon="6.7958">
        <ele>821</ele>
        <time>2026-08-28T06:28:45Z</time>
      </trkpt>
      <trkpt lat="47.2488" lon="6.79612">
        <ele>822</ele>
        <time>2026-08-28T06:28:51Z</time>
      </trkpt>
      <trkpt lat="47.24878" lon="6.79628">
        <ele>822</ele>
        <time>2026-08-28T06:28:53Z</time>
      </trkpt>
      <trkpt lat="47.24871" lon="6.79646">
        <ele>824</ele>
        <time>2026-08-28T06:28:56Z</time>
      </trkpt>
      <trkpt lat="47.24866" lon="6.79621">
        <ele>826</ele>
        <time>2026-08-28T06:29:01Z</time>
      </trkpt>
      <trkpt lat="47.24829" lon="6.79505">
        <ele>834</ele>
        <time>2026-08-28T06:29:21Z</time>
      </trkpt>
      <trkpt lat="47.24785" lon="6.79358">
        <ele>827</ele>
        <time>2026-08-28T06:29:46Z</time>
      </trkpt>
      <trkpt lat="47.24779" lon="6.79348">
        <ele>828</ele>
        <time>2026-08-28T06:29:48Z</time>
      </trkpt>
      <trkpt lat="47.24779" lon="6.79348">
        <ele>828</ele>
        <time>2026-08-28T06:29:48Z</time>
      </trkpt>
      <trkpt lat="47.24763" lon="6.7932">
        <ele>829</ele>
        <time>2026-08-28T06:29:54Z</time>
      </trkpt>
      <trkpt lat="47.24759" lon="6.79327">
        <ele>830</ele>
        <time>2026-08-28T06:29:56Z</time>
      </trkpt>
      <trkpt lat="47.24751" lon="6.79362">
        <ele>832</ele>
        <time>2026-08-28T06:30:02Z</time>
      </trkpt>
      <trkpt lat="47.24748" lon="6.7937">
        <ele>832</ele>
        <time>2026-08-28T06:30:03Z</time>
      </trkpt>
      <trkpt lat="47.2475" lon="6.79382">
        <ele>832</ele>
        <time>2026-08-28T06:30:05Z</time>
      </trkpt>
      <trkpt lat="47.2475" lon="6.79386">
        <ele>832</ele>
        <time>2026-08-28T06:30:06Z</time>
      </trkpt>
      <trkpt lat="47.2475" lon="6.79382">
        <ele>832</ele>
        <time>2026-08-28T06:30:06Z</time>
      </trkpt>
      <trkpt lat="47.24745" lon="6.79383">
        <ele>832</ele>
        <time>2026-08-28T06:30:07Z</time>
      </trkpt>
      <trkpt lat="47.24755" lon="6.79474">
        <ele>834</ele>
        <time>2026-08-28T06:30:22Z</time>
      </trkpt>
      <trkpt lat="47.24761" lon="6.79544">
        <ele>837</ele>
        <time>2026-08-28T06:30:33Z</time>
      </trkpt>
      <trkpt lat="47.24767" lon="6.79612">
        <ele>839</ele>
        <time>2026-08-28T06:30:44Z</time>
      </trkpt>
      <trkpt lat="47.24777" lon="6.7966">
        <ele>840</ele>
        <time>2026-08-28T06:30:52Z</time>
      </trkpt>
      <trkpt lat="47.2478" lon="6.79682">
        <ele>840</ele>
        <time>2026-08-28T06:30:56Z</time>
      </trkpt>
      <trkpt lat="47.2478" lon="6.79706">
        <ele>840</ele>
        <time>2026-08-28T06:30:59Z</time>
      </trkpt>
      <trkpt lat="47.24772" lon="6.7975">
        <ele>840</ele>
        <time>2026-08-28T06:31:07Z</time>
      </trkpt>
      <trkpt lat="47.24733" lon="6.7993">
        <ele>830</ele>
        <time>2026-08-28T06:31:37Z</time>
      </trkpt>
      <trkpt lat="47.24732" lon="6.79943">
        <ele>829</ele>
        <time>2026-08-28T06:31:39Z</time>
      </trkpt>
      <trkpt lat="47.24741" lon="6.80051">
        <ele>828</ele>
        <time>2026-08-28T06:31:56Z</time>
      </trkpt>
      <trkpt lat="47.24742" lon="6.80063">
        <ele>828</ele>
        <time>2026-08-28T06:31:58Z</time>
      </trkpt>
      <trkpt lat="47.24747" lon="6.80114">
        <ele>827</ele>
        <time>2026-08-28T06:32:06Z</time>
      </trkpt>
      <trkpt lat="47.24749" lon="6.80152">
        <ele>825</ele>
        <time>2026-08-28T06:32:12Z</time>
      </trkpt>
      <trkpt lat="47.24756" lon="6.80207">
        <ele>825</ele>
        <time>2026-08-28T06:32:21Z</time>
      </trkpt>
      <trkpt lat="47.2476" lon="6.80206">
        <ele>826</ele>
        <time>2026-08-28T06:32:22Z</time>
      </trkpt>
      <trkpt lat="47.24761" lon="6.80218">
        <ele>826</ele>
        <time>2026-08-28T06:32:24Z</time>
      </trkpt>
      <trkpt lat="47.24762" lon="6.80222">
        <ele>826</ele>
        <time>2026-08-28T06:32:24Z</time>
      </trkpt>
      <trkpt lat="47.24758" lon="6.80223">
        <ele>825</ele>
        <time>2026-08-28T06:32:25Z</time>
      </trkpt>
      <trkpt lat="47.24717" lon="6.80236">
        <ele>824</ele>
        <time>2026-08-28T06:32:35Z</time>
      </trkpt>
      <trkpt lat="47.24704" lon="6.80242">
        <ele>823</ele>
        <time>2026-08-28T06:32:38Z</time>
      </trkpt>
      <trkpt lat="47.24692" lon="6.8025">
        <ele>822</ele>
        <time>2026-08-28T06:32:41Z</time>
      </trkpt>
      <trkpt lat="47.24669" lon="6.80273">
        <ele>821</ele>
        <time>2026-08-28T06:32:48Z</time>
      </trkpt>
      <trkpt lat="47.24662" lon="6.80284">
        <ele>821</ele>
        <time>2026-08-28T06:32:50Z</time>
      </trkpt>
      <trkpt lat="47.24654" lon="6.80299">
        <ele>820</ele>
        <time>2026-08-28T06:32:53Z</time>
      </trkpt>
      <trkpt lat="47.24649" lon="6.80315">
        <ele>820</ele>
        <time>2026-08-28T06:32:56Z</time>
      </trkpt>
      <trkpt lat="47.24641" lon="6.80337">
        <ele>820</ele>
        <time>2026-08-28T06:33:00Z</time>
      </trkpt>
      <trkpt lat="47.24625" lon="6.80406">
        <ele>819</ele>
        <time>2026-08-28T06:33:12Z</time>
      </trkpt>
      <trkpt lat="47.2462" lon="6.80419">
        <ele>818</ele>
        <time>2026-08-28T06:33:14Z</time>
      </trkpt>
      <trkpt lat="47.2461" lon="6.80445">
        <ele>818</ele>
        <time>2026-08-28T06:33:19Z</time>
      </trkpt>
      <trkpt lat="47.24597" lon="6.80469">
        <ele>817</ele>
        <time>2026-08-28T06:33:24Z</time>
      </trkpt>
      <trkpt lat="47.24572" lon="6.80502">
        <ele>815</ele>
        <time>2026-08-28T06:33:31Z</time>
      </trkpt>
      <trkpt lat="47.24533" lon="6.80552">
        <ele>813</ele>
        <time>2026-08-28T06:33:44Z</time>
      </trkpt>
      <trkpt lat="47.24518" lon="6.80565">
        <ele>811</ele>
        <time>2026-08-28T06:33:48Z</time>
      </trkpt>
      <trkpt lat="47.24493" lon="6.80589">
        <ele>810</ele>
        <time>2026-08-28T06:33:55Z</time>
      </trkpt>
      <trkpt lat="47.2446" lon="6.80631">
        <ele>807</ele>
        <time>2026-08-28T06:34:05Z</time>
      </trkpt>
      <trkpt lat="47.24451" lon="6.80637">
        <ele>807</ele>
        <time>2026-08-28T06:34:07Z</time>
      </trkpt>
      <trkpt lat="47.24441" lon="6.80647">
        <ele>806</ele>
        <time>2026-08-28T06:34:10Z</time>
      </trkpt>
      <trkpt lat="47.24429" lon="6.80665">
        <ele>805</ele>
        <time>2026-08-28T06:34:14Z</time>
      </trkpt>
      <trkpt lat="47.24415" lon="6.80694">
        <ele>803</ele>
        <time>2026-08-28T06:34:20Z</time>
      </trkpt>
      <trkpt lat="47.24412" lon="6.807">
        <ele>803</ele>
        <time>2026-08-28T06:34:21Z</time>
      </trkpt>
      <trkpt lat="47.24399" lon="6.80737">
        <ele>801</ele>
        <time>2026-08-28T06:34:27Z</time>
      </trkpt>
      <trkpt lat="47.24384" lon="6.8079">
        <ele>801</ele>
        <time>2026-08-28T06:34:36Z</time>
      </trkpt>
      <trkpt lat="47.24383" lon="6.80794">
        <ele>801</ele>
        <time>2026-08-28T06:34:37Z</time>
      </trkpt>
      <trkpt lat="47.24367" lon="6.80791">
        <ele>801</ele>
        <time>2026-08-28T06:34:41Z</time>
      </trkpt>
      <trkpt lat="47.24354" lon="6.80789">
        <ele>800</ele>
        <time>2026-08-28T06:34:44Z</time>
      </trkpt>
      <trkpt lat="47.24327" lon="6.80788">
        <ele>799</ele>
        <time>2026-08-28T06:34:50Z</time>
      </trkpt>
      <trkpt lat="47.24284" lon="6.80789">
        <ele>797</ele>
        <time>2026-08-28T06:35:00Z</time>
      </trkpt>
      <trkpt lat="47.24284" lon="6.80803">
        <ele>798</ele>
        <time>2026-08-28T06:35:02Z</time>
      </trkpt>
      <trkpt lat="47.24279" lon="6.8081">
        <ele>798</ele>
        <time>2026-08-28T06:35:04Z</time>
      </trkpt>
      <trkpt lat="47.24273" lon="6.80815">
        <ele>798</ele>
        <time>2026-08-28T06:35:06Z</time>
      </trkpt>
      <trkpt lat="47.24185" lon="6.80857">
        <ele>797</ele>
        <time>2026-08-28T06:35:27Z</time>
      </trkpt>
      <trkpt lat="47.24176" lon="6.80863">
        <ele>797</ele>
        <time>2026-08-28T06:35:30Z</time>
      </trkpt>
      <trkpt lat="47.24163" lon="6.80876">
        <ele>797</ele>
        <time>2026-08-28T06:35:33Z</time>
      </trkpt>
      <trkpt lat="47.24148" lon="6.80897">
        <ele>797</ele>
        <time>2026-08-28T06:35:38Z</time>
      </trkpt>
      <trkpt lat="47.24135" lon="6.80919">
        <ele>798</ele>
        <time>2026-08-28T06:35:43Z</time>
      </trkpt>
      <trkpt lat="47.2413" lon="6.80931">
        <ele>798</ele>
        <time>2026-08-28T06:35:45Z</time>
      </trkpt>
      <trkpt lat="47.24112" lon="6.80986">
        <ele>798</ele>
        <time>2026-08-28T06:35:55Z</time>
      </trkpt>
      <trkpt lat="47.24044" lon="6.81194">
        <ele>798</ele>
        <time>2026-08-28T06:36:31Z</time>
      </trkpt>
      <trkpt lat="47.2402" lon="6.81293">
        <ele>796</ele>
        <time>2026-08-28T06:36:48Z</time>
      </trkpt>
      <trkpt lat="47.24012" lon="6.81332">
        <ele>795</ele>
        <time>2026-08-28T06:36:54Z</time>
      </trkpt>
      <trkpt lat="47.24011" lon="6.81343">
        <ele>795</ele>
        <time>2026-08-28T06:36:56Z</time>
      </trkpt>
      <trkpt lat="47.23978" lon="6.8163">
        <ele>805</ele>
        <time>2026-08-28T06:37:42Z</time>
      </trkpt>
      <trkpt lat="47.23904" lon="6.81772">
        <ele>812</ele>
        <time>2026-08-28T06:38:11Z</time>
      </trkpt>
      <trkpt lat="47.23859" lon="6.81792">
        <ele>815</ele>
        <time>2026-08-28T06:38:22Z</time>
      </trkpt>
      <trkpt lat="47.23754" lon="6.81789">
        <ele>825</ele>
        <time>2026-08-28T06:38:46Z</time>
      </trkpt>
      <trkpt lat="47.23698" lon="6.81924">
        <ele>828</ele>
        <time>2026-08-28T06:39:11Z</time>
      </trkpt>
      <trkpt lat="47.23583" lon="6.82102">
        <ele>844</ele>
        <time>2026-08-28T06:39:50Z</time>
      </trkpt>
      <trkpt lat="47.2359" lon="6.82094">
        <ele>845</ele>
        <time>2026-08-28T06:39:52Z</time>
      </trkpt>
      <trkpt lat="47.23588" lon="6.82104">
        <ele>843</ele>
        <time>2026-08-28T06:39:54Z</time>
      </trkpt>
      <trkpt lat="47.23579" lon="6.82121">
        <ele>842</ele>
        <time>2026-08-28T06:39:57Z</time>
      </trkpt>
      <trkpt lat="47.23556" lon="6.82142">
        <ele>841</ele>
        <time>2026-08-28T06:40:04Z</time>
      </trkpt>
      <trkpt lat="47.23533" lon="6.82178">
        <ele>840</ele>
        <time>2026-08-28T06:40:12Z</time>
      </trkpt>
      <trkpt lat="47.23517" lon="6.82211">
        <ele>841</ele>
        <time>2026-08-28T06:40:18Z</time>
      </trkpt>
      <trkpt lat="47.235" lon="6.82258">
        <ele>841</ele>
        <time>2026-08-28T06:40:26Z</time>
      </trkpt>
      <trkpt lat="47.23491" lon="6.8232">
        <ele>840</ele>
        <time>2026-08-28T06:40:36Z</time>
      </trkpt>
      <trkpt lat="47.23493" lon="6.824">
        <ele>839</ele>
        <time>2026-08-28T06:40:49Z</time>
      </trkpt>
      <trkpt lat="47.23504" lon="6.82486">
        <ele>839</ele>
        <time>2026-08-28T06:41:03Z</time>
      </trkpt>
      <trkpt lat="47.2351" lon="6.82593">
        <ele>840</ele>
        <time>2026-08-28T06:41:20Z</time>
      </trkpt>
      <trkpt lat="47.23507" lon="6.82627">
        <ele>842</ele>
        <time>2026-08-28T06:41:25Z</time>
      </trkpt>
      <trkpt lat="47.23497" lon="6.8268">
        <ele>844</ele>
        <time>2026-08-28T06:41:34Z</time>
      </trkpt>
      <trkpt lat="47.23466" lon="6.82753">
        <ele>845</ele>
        <time>2026-08-28T06:41:48Z</time>
      </trkpt>
      <trkpt lat="47.23432" lon="6.82796">
        <ele>845</ele>
        <time>2026-08-28T06:41:58Z</time>
      </trkpt>
      <trkpt lat="47.23407" lon="6.82816">
        <ele>846</ele>
        <time>2026-08-28T06:42:05Z</time>
      </trkpt>
      <trkpt lat="47.23305" lon="6.82891">
        <ele>849</ele>
        <time>2026-08-28T06:42:32Z</time>
      </trkpt>
      <trkpt lat="47.23186" lon="6.82978">
        <ele>857</ele>
        <time>2026-08-28T06:43:03Z</time>
      </trkpt>
      <trkpt lat="47.23161" lon="6.82994">
        <ele>857</ele>
        <time>2026-08-28T06:43:09Z</time>
      </trkpt>
      <trkpt lat="47.23108" lon="6.83011">
        <ele>853</ele>
        <time>2026-08-28T06:43:22Z</time>
      </trkpt>
      <trkpt lat="47.23059" lon="6.83021">
        <ele>852</ele>
        <time>2026-08-28T06:43:33Z</time>
      </trkpt>
      <trkpt lat="47.23043" lon="6.83022">
        <ele>852</ele>
        <time>2026-08-28T06:43:37Z</time>
      </trkpt>
      <trkpt lat="47.2299" lon="6.83014">
        <ele>852</ele>
        <time>2026-08-28T06:43:49Z</time>
      </trkpt>
      <trkpt lat="47.22945" lon="6.82993">
        <ele>855</ele>
        <time>2026-08-28T06:44:00Z</time>
      </trkpt>
      <trkpt lat="47.2287" lon="6.82909">
        <ele>856</ele>
        <time>2026-08-28T06:44:22Z</time>
      </trkpt>
      <trkpt lat="47.2283" lon="6.82885">
        <ele>858</ele>
        <time>2026-08-28T06:44:32Z</time>
      </trkpt>
      <trkpt lat="47.22766" lon="6.82799">
        <ele>865</ele>
        <time>2026-08-28T06:44:53Z</time>
      </trkpt>
      <trkpt lat="47.2275" lon="6.82778">
        <ele>866</ele>
        <time>2026-08-28T06:44:58Z</time>
      </trkpt>
      <trkpt lat="47.22672" lon="6.82698">
        <ele>868</ele>
        <time>2026-08-28T06:45:20Z</time>
      </trkpt>
      <trkpt lat="47.22663" lon="6.82691">
        <ele>868</ele>
        <time>2026-08-28T06:45:22Z</time>
      </trkpt>
      <trkpt lat="47.22649" lon="6.82683">
        <ele>868</ele>
        <time>2026-08-28T06:45:26Z</time>
      </trkpt>
      <trkpt lat="47.22584" lon="6.82657">
        <ele>871</ele>
        <time>2026-08-28T06:45:42Z</time>
      </trkpt>
      <trkpt lat="47.2257" lon="6.82655">
        <ele>872</ele>
        <time>2026-08-28T06:45:45Z</time>
      </trkpt>
      <trkpt lat="47.22551" lon="6.82654">
        <ele>873</ele>
        <time>2026-08-28T06:45:49Z</time>
      </trkpt>
      <trkpt lat="47.22526" lon="6.82655">
        <ele>875</ele>
        <time>2026-08-28T06:45:55Z</time>
      </trkpt>
      <trkpt lat="47.22503" lon="6.82653">
        <ele>876</ele>
        <time>2026-08-28T06:46:00Z</time>
      </trkpt>
      <trkpt lat="47.22491" lon="6.82655">
        <ele>878</ele>
        <time>2026-08-28T06:46:03Z</time>
      </trkpt>
      <trkpt lat="47.22475" lon="6.82662">
        <ele>881</ele>
        <time>2026-08-28T06:46:07Z</time>
      </trkpt>
      <trkpt lat="47.22471" lon="6.8266">
        <ele>881</ele>
        <time>2026-08-28T06:46:08Z</time>
      </trkpt>
      <trkpt lat="47.22465" lon="6.82651">
        <ele>880</ele>
        <time>2026-08-28T06:46:10Z</time>
      </trkpt>
      <trkpt lat="47.22452" lon="6.82637">
        <ele>880</ele>
        <time>2026-08-28T06:46:14Z</time>
      </trkpt>
      <trkpt lat="47.22398" lon="6.8259">
        <ele>879</ele>
        <time>2026-08-28T06:46:29Z</time>
      </trkpt>
      <trkpt lat="47.22381" lon="6.82575">
        <ele>878</ele>
        <time>2026-08-28T06:46:33Z</time>
      </trkpt>
      <trkpt lat="47.22351" lon="6.82551">
        <ele>879</ele>
        <time>2026-08-28T06:46:41Z</time>
      </trkpt>
      <trkpt lat="47.22314" lon="6.82506">
        <ele>881</ele>
        <time>2026-08-28T06:46:52Z</time>
      </trkpt>
      <trkpt lat="47.22305" lon="6.82488">
        <ele>882</ele>
        <time>2026-08-28T06:46:56Z</time>
      </trkpt>
      <trkpt lat="47.22257" lon="6.8238">
        <ele>884</ele>
        <time>2026-08-28T06:47:16Z</time>
      </trkpt>
      <trkpt lat="47.22241" lon="6.82355">
        <ele>883</ele>
        <time>2026-08-28T06:47:22Z</time>
      </trkpt>
      <trkpt lat="47.22225" lon="6.82336">
        <ele>883</ele>
        <time>2026-08-28T06:47:27Z</time>
      </trkpt>
      <trkpt lat="47.22201" lon="6.82314">
        <ele>883</ele>
        <time>2026-08-28T06:47:33Z</time>
      </trkpt>
      <trkpt lat="47.22168" lon="6.82294">
        <ele>884</ele>
        <time>2026-08-28T06:47:42Z</time>
      </trkpt>
      <trkpt lat="47.22142" lon="6.82283">
        <ele>886</ele>
        <time>2026-08-28T06:47:48Z</time>
      </trkpt>
      <trkpt lat="47.22046" lon="6.82255">
        <ele>890</ele>
        <time>2026-08-28T06:48:11Z</time>
      </trkpt>
      <trkpt lat="47.22023" lon="6.82251">
        <ele>889</ele>
        <time>2026-08-28T06:48:16Z</time>
      </trkpt>
      <trkpt lat="47.21991" lon="6.82249">
        <ele>887</ele>
        <time>2026-08-28T06:48:24Z</time>
      </trkpt>
      <trkpt lat="47.21956" lon="6.82256">
        <ele>884</ele>
        <time>2026-08-28T06:48:32Z</time>
      </trkpt>
      <trkpt lat="47.21922" lon="6.82274">
        <ele>883</ele>
        <time>2026-08-28T06:48:40Z</time>
      </trkpt>
      <trkpt lat="47.21902" lon="6.82286">
        <ele>882</ele>
        <time>2026-08-28T06:48:45Z</time>
      </trkpt>
      <trkpt lat="47.21891" lon="6.82297">
        <ele>882</ele>
        <time>2026-08-28T06:48:49Z</time>
      </trkpt>
      <trkpt lat="47.21835" lon="6.82235">
        <ele>880</ele>
        <time>2026-08-28T06:49:05Z</time>
      </trkpt>
      <trkpt lat="47.21821" lon="6.82222">
        <ele>879</ele>
        <time>2026-08-28T06:49:09Z</time>
      </trkpt>
      <trkpt lat="47.21794" lon="6.82204">
        <ele>878</ele>
        <time>2026-08-28T06:49:16Z</time>
      </trkpt>
      <trkpt lat="47.21763" lon="6.82189">
        <ele>876</ele>
        <time>2026-08-28T06:49:23Z</time>
      </trkpt>
      <trkpt lat="47.21734" lon="6.82182">
        <ele>875</ele>
        <time>2026-08-28T06:49:30Z</time>
      </trkpt>
      <trkpt lat="47.21676" lon="6.82173">
        <ele>871</ele>
        <time>2026-08-28T06:49:44Z</time>
      </trkpt>
      <trkpt lat="47.21664" lon="6.82165">
        <ele>871</ele>
        <time>2026-08-28T06:49:47Z</time>
      </trkpt>
      <trkpt lat="47.21654" lon="6.82154">
        <ele>870</ele>
        <time>2026-08-28T06:49:50Z</time>
      </trkpt>
      <trkpt lat="47.21648" lon="6.82144">
        <ele>870</ele>
        <time>2026-08-28T06:49:52Z</time>
      </trkpt>
      <trkpt lat="47.21641" lon="6.82127">
        <ele>870</ele>
        <time>2026-08-28T06:49:55Z</time>
      </trkpt>
      <trkpt lat="47.216" lon="6.82019">
        <ele>867</ele>
        <time>2026-08-28T06:50:15Z</time>
      </trkpt>
      <trkpt lat="47.21588" lon="6.82004">
        <ele>865</ele>
        <time>2026-08-28T06:50:18Z</time>
      </trkpt>
      <trkpt lat="47.21578" lon="6.8202">
        <ele>865</ele>
        <time>2026-08-28T06:50:22Z</time>
      </trkpt>
      <trkpt lat="47.21567" lon="6.82031">
        <ele>865</ele>
        <time>2026-08-28T06:50:25Z</time>
      </trkpt>
      <trkpt lat="47.21563" lon="6.82034">
        <ele>865</ele>
        <time>2026-08-28T06:50:26Z</time>
      </trkpt>
      <trkpt lat="47.21476" lon="6.82109">
        <ele>870</ele>
        <time>2026-08-28T06:50:49Z</time>
      </trkpt>
      <trkpt lat="47.21386" lon="6.81826">
        <ele>869</ele>
        <time>2026-08-28T06:51:39Z</time>
      </trkpt>
      <trkpt lat="47.21283" lon="6.81648">
        <ele>878</ele>
        <time>2026-08-28T06:52:16Z</time>
      </trkpt>
      <trkpt lat="47.21213" lon="6.81497">
        <ele>883</ele>
        <time>2026-08-28T06:52:45Z</time>
      </trkpt>
      <trkpt lat="47.21146" lon="6.81285">
        <ele>882</ele>
        <time>2026-08-28T06:53:22Z</time>
      </trkpt>
      <trkpt lat="47.21023" lon="6.81149">
        <ele>884</ele>
        <time>2026-08-28T06:53:58Z</time>
      </trkpt>
      <trkpt lat="47.20931" lon="6.81072">
        <ele>887</ele>
        <time>2026-08-28T06:54:23Z</time>
      </trkpt>
      <trkpt lat="47.20849" lon="6.80961">
        <ele>890</ele>
        <time>2026-08-28T06:54:49Z</time>
      </trkpt>
      <trkpt lat="47.20751" lon="6.80864">
        <ele>898</ele>
        <time>2026-08-28T06:55:16Z</time>
      </trkpt>
      <trkpt lat="47.2072" lon="6.80813">
        <ele>895</ele>
        <time>2026-08-28T06:55:27Z</time>
      </trkpt>
      <trkpt lat="47.20715" lon="6.80746">
        <ele>893</ele>
        <time>2026-08-28T06:55:38Z</time>
      </trkpt>
      <trkpt lat="47.20691" lon="6.80623">
        <ele>887</ele>
        <time>2026-08-28T06:55:58Z</time>
      </trkpt>
      <trkpt lat="47.20673" lon="6.80529">
        <ele>886</ele>
        <time>2026-08-28T06:56:14Z</time>
      </trkpt>
      <trkpt lat="47.20695" lon="6.8043">
        <ele>885</ele>
        <time>2026-08-28T06:56:30Z</time>
      </trkpt>
      <trkpt lat="47.20749" lon="6.80318">
        <ele>888</ele>
        <time>2026-08-28T06:56:52Z</time>
      </trkpt>
      <trkpt lat="47.20775" lon="6.80216">
        <ele>885</ele>
        <time>2026-08-28T06:57:09Z</time>
      </trkpt>
      <trkpt lat="47.20787" lon="6.80045">
        <ele>883</ele>
        <time>2026-08-28T06:57:37Z</time>
      </trkpt>
      <trkpt lat="47.20805" lon="6.79914">
        <ele>880</ele>
        <time>2026-08-28T06:57:58Z</time>
      </trkpt>
      <trkpt lat="47.20833" lon="6.7978">
        <ele>879</ele>
        <time>2026-08-28T06:58:20Z</time>
      </trkpt>
      <trkpt lat="47.20842" lon="6.79614">
        <ele>891</ele>
        <time>2026-08-28T06:58:47Z</time>
      </trkpt>
      <trkpt lat="47.20822" lon="6.79547">
        <ele>896</ele>
        <time>2026-08-28T06:58:58Z</time>
      </trkpt>
      <trkpt lat="47.20765" lon="6.79504">
        <ele>902</ele>
        <time>2026-08-28T06:59:13Z</time>
      </trkpt>
      <trkpt lat="47.20713" lon="6.79499">
        <ele>902</ele>
        <time>2026-08-28T06:59:25Z</time>
      </trkpt>
      <trkpt lat="47.20671" lon="6.79493">
        <ele>901</ele>
        <time>2026-08-28T06:59:35Z</time>
      </trkpt>
      <trkpt lat="47.20627" lon="6.79475">
        <ele>905</ele>
        <time>2026-08-28T06:59:46Z</time>
      </trkpt>
      <trkpt lat="47.20715" lon="6.79448">
        <ele>909</ele>
        <time>2026-08-28T07:00:07Z</time>
      </trkpt>
      <trkpt lat="47.20787" lon="6.79416">
        <ele>906</ele>
        <time>2026-08-28T07:00:24Z</time>
      </trkpt>
      <trkpt lat="47.20853" lon="6.79402">
        <ele>898</ele>
        <time>2026-08-28T07:00:40Z</time>
      </trkpt>
      <trkpt lat="47.20931" lon="6.79418">
        <ele>897</ele>
        <time>2026-08-28T07:00:58Z</time>
      </trkpt>
      <trkpt lat="47.21078" lon="6.79458">
        <ele>889</ele>
        <time>2026-08-28T07:01:33Z</time>
      </trkpt>
      <trkpt lat="47.21178" lon="6.79477">
        <ele>879</ele>
        <time>2026-08-28T07:01:57Z</time>
      </trkpt>
      <trkpt lat="47.21331" lon="6.79466">
        <ele>875</ele>
        <time>2026-08-28T07:02:33Z</time>
      </trkpt>
      <trkpt lat="47.21451" lon="6.79517">
        <ele>879</ele>
        <time>2026-08-28T07:03:02Z</time>
      </trkpt>
      <trkpt lat="47.21536" lon="6.79619">
        <ele>887</ele>
        <time>2026-08-28T07:03:27Z</time>
      </trkpt>
      <trkpt lat="47.21606" lon="6.79694">
        <ele>891</ele>
        <time>2026-08-28T07:03:48Z</time>
      </trkpt>
      <trkpt lat="47.21687" lon="6.79761">
        <ele>894</ele>
        <time>2026-08-28T07:04:09Z</time>
      </trkpt>
      <trkpt lat="47.21766" lon="6.79841">
        <ele>896</ele>
        <time>2026-08-28T07:04:32Z</time>
      </trkpt>
    </trkseg>
  </trk>
</gpx>